<?xml version="1.0" encoding="UTF-8" standalone="no" ?>
<gpx xmlns="http://www.topografix.com/GPX/1/1" xmlns:xsi="http://www.w3.org/2001/XMLSchema-instance" xsi:schemaLocation="http://www.topografix.com/GPX/1/1 http://www.topografix.com/GPX/1/1/gpx.xsd" version="1.1" creator="VisuGPX - https://www.visugpx.com">
  <metadata>
    <name>Les Grès d'Annot</name>
    <desc><![CDATA[Circuit bleu + rouge des grès d'Annot au départ de la place du village.]]></desc>
  </metadata>
  <trk>
    <name><![CDATA[Gres Annot]]></name>
    <trkseg>
      <trkpt lat="43.96608" lon="6.66813">
        <ele>591.459</ele>
        <time>2019-04-20T07:55:50Z</time>
      </trkpt>
      <trkpt lat="43.96612" lon="6.66816">
        <ele>591.959</ele>
        <time>2019-04-20T07:55:58Z</time>
      </trkpt>
      <trkpt lat="43.96612" lon="6.6682">
        <ele>591.703</ele>
        <time>2019-04-20T07:56:16Z</time>
      </trkpt>
      <trkpt lat="43.9662" lon="6.66822">
        <ele>591.282</ele>
        <time>2019-04-20T07:56:33Z</time>
      </trkpt>
      <trkpt lat="43.96617" lon="6.66824">
        <ele>591.364</ele>
        <time>2019-04-20T07:56:37Z</time>
      </trkpt>
      <trkpt lat="43.96608" lon="6.66825">
        <ele>591.053</ele>
        <time>2019-04-20T07:56:46Z</time>
      </trkpt>
      <trkpt lat="43.96603" lon="6.66826">
        <ele>591.203</ele>
        <time>2019-04-20T07:56:55Z</time>
      </trkpt>
      <trkpt lat="43.96598" lon="6.66828">
        <ele>594.613</ele>
        <time>2019-04-20T07:56:59Z</time>
      </trkpt>
      <trkpt lat="43.96595" lon="6.66828">
        <ele>611.971</ele>
        <time>2019-04-20T07:57:04Z</time>
      </trkpt>
      <trkpt lat="43.96592" lon="6.66827">
        <ele>621.628</ele>
        <time>2019-04-20T07:57:07Z</time>
      </trkpt>
      <trkpt lat="43.96589" lon="6.66827">
        <ele>626.951</ele>
        <time>2019-04-20T07:57:09Z</time>
      </trkpt>
      <trkpt lat="43.96585" lon="6.66826">
        <ele>634.971</ele>
        <time>2019-04-20T07:57:12Z</time>
      </trkpt>
      <trkpt lat="43.96582" lon="6.66826">
        <ele>639.843</ele>
        <time>2019-04-20T07:57:14Z</time>
      </trkpt>
      <trkpt lat="43.96578" lon="6.66827">
        <ele>647.896</ele>
        <time>2019-04-20T07:57:18Z</time>
      </trkpt>
      <trkpt lat="43.96573" lon="6.66828">
        <ele>655.022</ele>
        <time>2019-04-20T07:57:22Z</time>
      </trkpt>
      <trkpt lat="43.96571" lon="6.66829">
        <ele>658.197</ele>
        <time>2019-04-20T07:57:24Z</time>
      </trkpt>
      <trkpt lat="43.96564" lon="6.66832">
        <ele>666.932</ele>
        <time>2019-04-20T07:57:30Z</time>
      </trkpt>
      <trkpt lat="43.96562" lon="6.66835">
        <ele>671.103</ele>
        <time>2019-04-20T07:57:33Z</time>
      </trkpt>
      <trkpt lat="43.96558" lon="6.66842">
        <ele>678.039</ele>
        <time>2019-04-20T07:57:40Z</time>
      </trkpt>
      <trkpt lat="43.96557" lon="6.66849">
        <ele>682.766</ele>
        <time>2019-04-20T07:57:46Z</time>
      </trkpt>
      <trkpt lat="43.96557" lon="6.66855">
        <ele>686.428</ele>
        <time>2019-04-20T07:57:51Z</time>
      </trkpt>
      <trkpt lat="43.96555" lon="6.66866">
        <ele>689.536</ele>
        <time>2019-04-20T07:57:58Z</time>
      </trkpt>
      <trkpt lat="43.96557" lon="6.66882">
        <ele>693.151</ele>
        <time>2019-04-20T07:58:09Z</time>
      </trkpt>
      <trkpt lat="43.96557" lon="6.66889">
        <ele>694.814</ele>
        <time>2019-04-20T07:58:13Z</time>
      </trkpt>
      <trkpt lat="43.96559" lon="6.66901">
        <ele>695.685</ele>
        <time>2019-04-20T07:58:20Z</time>
      </trkpt>
      <trkpt lat="43.96556" lon="6.66915">
        <ele>696.608</ele>
        <time>2019-04-20T07:58:29Z</time>
      </trkpt>
      <trkpt lat="43.96552" lon="6.66926">
        <ele>696.78</ele>
        <time>2019-04-20T07:58:35Z</time>
      </trkpt>
      <trkpt lat="43.96546" lon="6.6694">
        <ele>696.597</ele>
        <time>2019-04-20T07:58:44Z</time>
      </trkpt>
      <trkpt lat="43.96544" lon="6.66947">
        <ele>696.574</ele>
        <time>2019-04-20T07:58:48Z</time>
      </trkpt>
      <trkpt lat="43.96545" lon="6.66953">
        <ele>697.427</ele>
        <time>2019-04-20T07:58:55Z</time>
      </trkpt>
      <trkpt lat="43.96545" lon="6.66961">
        <ele>700.327</ele>
        <time>2019-04-20T07:59:07Z</time>
      </trkpt>
      <trkpt lat="43.96544" lon="6.66971">
        <ele>700.966</ele>
        <time>2019-04-20T07:59:19Z</time>
      </trkpt>
      <trkpt lat="43.96546" lon="6.66982">
        <ele>701.276</ele>
        <time>2019-04-20T07:59:26Z</time>
      </trkpt>
      <trkpt lat="43.96547" lon="6.66991">
        <ele>701.279</ele>
        <time>2019-04-20T07:59:32Z</time>
      </trkpt>
      <trkpt lat="43.96546" lon="6.66995">
        <ele>701.668</ele>
        <time>2019-04-20T07:59:35Z</time>
      </trkpt>
      <trkpt lat="43.96545" lon="6.67">
        <ele>701.761</ele>
        <time>2019-04-20T07:59:39Z</time>
      </trkpt>
      <trkpt lat="43.96544" lon="6.67007">
        <ele>702.313</ele>
        <time>2019-04-20T07:59:44Z</time>
      </trkpt>
      <trkpt lat="43.96539" lon="6.67016">
        <ele>702.219</ele>
        <time>2019-04-20T07:59:52Z</time>
      </trkpt>
      <trkpt lat="43.96539" lon="6.67021">
        <ele>702.125</ele>
        <time>2019-04-20T07:59:55Z</time>
      </trkpt>
      <trkpt lat="43.96536" lon="6.67029">
        <ele>702.323</ele>
        <time>2019-04-20T08:00:01Z</time>
      </trkpt>
      <trkpt lat="43.96533" lon="6.67036">
        <ele>703.153</ele>
        <time>2019-04-20T08:00:06Z</time>
      </trkpt>
      <trkpt lat="43.96529" lon="6.67042">
        <ele>703.239</ele>
        <time>2019-04-20T08:00:15Z</time>
      </trkpt>
      <trkpt lat="43.96527" lon="6.67054">
        <ele>703.637</ele>
        <time>2019-04-20T08:00:31Z</time>
      </trkpt>
      <trkpt lat="43.96529" lon="6.67061">
        <ele>704.271</ele>
        <time>2019-04-20T08:00:35Z</time>
      </trkpt>
      <trkpt lat="43.96523" lon="6.67071">
        <ele>704.319</ele>
        <time>2019-04-20T08:00:43Z</time>
      </trkpt>
      <trkpt lat="43.9652" lon="6.67083">
        <ele>705.613</ele>
        <time>2019-04-20T08:00:51Z</time>
      </trkpt>
      <trkpt lat="43.96519" lon="6.67089">
        <ele>705.19</ele>
        <time>2019-04-20T08:00:55Z</time>
      </trkpt>
      <trkpt lat="43.96519" lon="6.67101">
        <ele>706.439</ele>
        <time>2019-04-20T08:01:04Z</time>
      </trkpt>
      <trkpt lat="43.96521" lon="6.67114">
        <ele>707.046</ele>
        <time>2019-04-20T08:01:13Z</time>
      </trkpt>
      <trkpt lat="43.96522" lon="6.67127">
        <ele>707.855</ele>
        <time>2019-04-20T08:01:25Z</time>
      </trkpt>
      <trkpt lat="43.96522" lon="6.67136">
        <ele>707.869</ele>
        <time>2019-04-20T08:01:36Z</time>
      </trkpt>
      <trkpt lat="43.9652" lon="6.67143">
        <ele>708.826</ele>
        <time>2019-04-20T08:01:49Z</time>
      </trkpt>
      <trkpt lat="43.96517" lon="6.67149">
        <ele>709.165</ele>
        <time>2019-04-20T08:01:55Z</time>
      </trkpt>
      <trkpt lat="43.96508" lon="6.67162">
        <ele>709.447</ele>
        <time>2019-04-20T08:02:07Z</time>
      </trkpt>
      <trkpt lat="43.965" lon="6.67168">
        <ele>710.161</ele>
        <time>2019-04-20T08:02:16Z</time>
      </trkpt>
      <trkpt lat="43.96493" lon="6.67173">
        <ele>711.417</ele>
        <time>2019-04-20T08:02:24Z</time>
      </trkpt>
      <trkpt lat="43.96488" lon="6.67175">
        <ele>710.674</ele>
        <time>2019-04-20T08:02:29Z</time>
      </trkpt>
      <trkpt lat="43.9649" lon="6.67185">
        <ele>711.985</ele>
        <time>2019-04-20T08:02:36Z</time>
      </trkpt>
      <trkpt lat="43.96492" lon="6.67193">
        <ele>712.364</ele>
        <time>2019-04-20T08:02:44Z</time>
      </trkpt>
      <trkpt lat="43.96488" lon="6.67204">
        <ele>712.303</ele>
        <time>2019-04-20T08:02:49Z</time>
      </trkpt>
      <trkpt lat="43.96482" lon="6.6721">
        <ele>712.927</ele>
        <time>2019-04-20T08:02:57Z</time>
      </trkpt>
      <trkpt lat="43.96474" lon="6.6722">
        <ele>714.191</ele>
        <time>2019-04-20T08:03:12Z</time>
      </trkpt>
      <trkpt lat="43.96462" lon="6.67229">
        <ele>715.501</ele>
        <time>2019-04-20T08:03:26Z</time>
      </trkpt>
      <trkpt lat="43.96458" lon="6.6723">
        <ele>715.969</ele>
        <time>2019-04-20T08:03:36Z</time>
      </trkpt>
      <trkpt lat="43.96454" lon="6.67234">
        <ele>716.821</ele>
        <time>2019-04-20T08:03:58Z</time>
      </trkpt>
      <trkpt lat="43.96452" lon="6.67236">
        <ele>717.29</ele>
        <time>2019-04-20T08:04:22Z</time>
      </trkpt>
      <trkpt lat="43.9645" lon="6.67239">
        <ele>716.937</ele>
        <time>2019-04-20T08:04:27Z</time>
      </trkpt>
      <trkpt lat="43.9645" lon="6.67243">
        <ele>717.397</ele>
        <time>2019-04-20T08:04:33Z</time>
      </trkpt>
      <trkpt lat="43.96445" lon="6.67246">
        <ele>718.079</ele>
        <time>2019-04-20T08:04:37Z</time>
      </trkpt>
      <trkpt lat="43.96435" lon="6.67253">
        <ele>719.212</ele>
        <time>2019-04-20T08:04:49Z</time>
      </trkpt>
      <trkpt lat="43.96427" lon="6.67259">
        <ele>720.131</ele>
        <time>2019-04-20T08:04:58Z</time>
      </trkpt>
      <trkpt lat="43.96415" lon="6.67266">
        <ele>720.562</ele>
        <time>2019-04-20T08:05:12Z</time>
      </trkpt>
      <trkpt lat="43.96403" lon="6.67273">
        <ele>720.589</ele>
        <time>2019-04-20T08:05:23Z</time>
      </trkpt>
      <trkpt lat="43.96392" lon="6.67281">
        <ele>720.69</ele>
        <time>2019-04-20T08:05:35Z</time>
      </trkpt>
      <trkpt lat="43.96388" lon="6.67284">
        <ele>721.542</ele>
        <time>2019-04-20T08:05:40Z</time>
      </trkpt>
      <trkpt lat="43.96385" lon="6.67283">
        <ele>721.486</ele>
        <time>2019-04-20T08:05:43Z</time>
      </trkpt>
      <trkpt lat="43.96375" lon="6.67289">
        <ele>720.361</ele>
        <time>2019-04-20T08:05:52Z</time>
      </trkpt>
      <trkpt lat="43.96367" lon="6.67298">
        <ele>721.288</ele>
        <time>2019-04-20T08:06:03Z</time>
      </trkpt>
      <trkpt lat="43.96356" lon="6.67307">
        <ele>721.004</ele>
        <time>2019-04-20T08:06:13Z</time>
      </trkpt>
      <trkpt lat="43.96346" lon="6.67314">
        <ele>721.034</ele>
        <time>2019-04-20T08:06:23Z</time>
      </trkpt>
      <trkpt lat="43.96341" lon="6.67318">
        <ele>721.141</ele>
        <time>2019-04-20T08:06:29Z</time>
      </trkpt>
      <trkpt lat="43.96332" lon="6.67324">
        <ele>721.507</ele>
        <time>2019-04-20T08:06:38Z</time>
      </trkpt>
      <trkpt lat="43.96321" lon="6.67331">
        <ele>721.22</ele>
        <time>2019-04-20T08:06:47Z</time>
      </trkpt>
      <trkpt lat="43.96309" lon="6.67339">
        <ele>720.716</ele>
        <time>2019-04-20T08:06:58Z</time>
      </trkpt>
      <trkpt lat="43.96293" lon="6.67347">
        <ele>718.478</ele>
        <time>2019-04-20T08:07:11Z</time>
      </trkpt>
      <trkpt lat="43.96281" lon="6.67355">
        <ele>717.717</ele>
        <time>2019-04-20T08:07:22Z</time>
      </trkpt>
      <trkpt lat="43.96279" lon="6.67364">
        <ele>717.438</ele>
        <time>2019-04-20T08:07:29Z</time>
      </trkpt>
      <trkpt lat="43.96269" lon="6.67372">
        <ele>718.578</ele>
        <time>2019-04-20T08:07:38Z</time>
      </trkpt>
      <trkpt lat="43.96266" lon="6.67375">
        <ele>719.472</ele>
        <time>2019-04-20T08:07:42Z</time>
      </trkpt>
      <trkpt lat="43.96261" lon="6.67381">
        <ele>719.789</ele>
        <time>2019-04-20T08:07:50Z</time>
      </trkpt>
      <trkpt lat="43.96257" lon="6.67387">
        <ele>721.432</ele>
        <time>2019-04-20T08:07:57Z</time>
      </trkpt>
      <trkpt lat="43.96251" lon="6.67393">
        <ele>723.796</ele>
        <time>2019-04-20T08:08:06Z</time>
      </trkpt>
      <trkpt lat="43.96249" lon="6.67395">
        <ele>723.947</ele>
        <time>2019-04-20T08:08:15Z</time>
      </trkpt>
      <trkpt lat="43.96247" lon="6.67395">
        <ele>724.079</ele>
        <time>2019-04-20T08:08:48Z</time>
      </trkpt>
      <trkpt lat="43.96241" lon="6.674">
        <ele>725.491</ele>
        <time>2019-04-20T08:09:01Z</time>
      </trkpt>
      <trkpt lat="43.96236" lon="6.674">
        <ele>725.7</ele>
        <time>2019-04-20T08:09:12Z</time>
      </trkpt>
      <trkpt lat="43.96232" lon="6.67401">
        <ele>726.834</ele>
        <time>2019-04-20T08:09:30Z</time>
      </trkpt>
      <trkpt lat="43.96228" lon="6.67402">
        <ele>727.388</ele>
        <time>2019-04-20T08:10:10Z</time>
      </trkpt>
      <trkpt lat="43.96222" lon="6.67403">
        <ele>728.442</ele>
        <time>2019-04-20T08:10:18Z</time>
      </trkpt>
      <trkpt lat="43.96216" lon="6.67404">
        <ele>729.563</ele>
        <time>2019-04-20T08:10:25Z</time>
      </trkpt>
      <trkpt lat="43.96222" lon="6.67411">
        <ele>733.533</ele>
        <time>2019-04-20T08:10:43Z</time>
      </trkpt>
      <trkpt lat="43.96222" lon="6.67418">
        <ele>736.05</ele>
        <time>2019-04-20T08:10:53Z</time>
      </trkpt>
      <trkpt lat="43.96227" lon="6.67422">
        <ele>737.417</ele>
        <time>2019-04-20T08:10:59Z</time>
      </trkpt>
      <trkpt lat="43.9623" lon="6.67427">
        <ele>738.436</ele>
        <time>2019-04-20T08:11:05Z</time>
      </trkpt>
      <trkpt lat="43.96226" lon="6.67429">
        <ele>738.969</ele>
        <time>2019-04-20T08:11:10Z</time>
      </trkpt>
      <trkpt lat="43.96223" lon="6.67433">
        <ele>739.236</ele>
        <time>2019-04-20T08:11:17Z</time>
      </trkpt>
      <trkpt lat="43.96222" lon="6.67441">
        <ele>740.553</ele>
        <time>2019-04-20T08:11:25Z</time>
      </trkpt>
      <trkpt lat="43.96224" lon="6.67439">
        <ele>742.057</ele>
        <time>2019-04-20T08:11:33Z</time>
      </trkpt>
      <trkpt lat="43.96228" lon="6.67435">
        <ele>742.471</ele>
        <time>2019-04-20T08:11:38Z</time>
      </trkpt>
      <trkpt lat="43.96234" lon="6.6744">
        <ele>743.878</ele>
        <time>2019-04-20T08:11:46Z</time>
      </trkpt>
      <trkpt lat="43.96235" lon="6.67446">
        <ele>744.742</ele>
        <time>2019-04-20T08:11:54Z</time>
      </trkpt>
      <trkpt lat="43.96235" lon="6.67453">
        <ele>747.551</ele>
        <time>2019-04-20T08:12:09Z</time>
      </trkpt>
      <trkpt lat="43.9623" lon="6.67457">
        <ele>748.649</ele>
        <time>2019-04-20T08:12:16Z</time>
      </trkpt>
      <trkpt lat="43.96231" lon="6.67464">
        <ele>749.432</ele>
        <time>2019-04-20T08:12:23Z</time>
      </trkpt>
      <trkpt lat="43.96231" lon="6.67473">
        <ele>754.099</ele>
        <time>2019-04-20T08:12:57Z</time>
      </trkpt>
      <trkpt lat="43.96228" lon="6.67476">
        <ele>755.023</ele>
        <time>2019-04-20T08:13:01Z</time>
      </trkpt>
      <trkpt lat="43.96232" lon="6.6748">
        <ele>755.514</ele>
        <time>2019-04-20T08:13:11Z</time>
      </trkpt>
      <trkpt lat="43.9623" lon="6.67478">
        <ele>755.766</ele>
        <time>2019-04-20T08:13:27Z</time>
      </trkpt>
      <trkpt lat="43.96238" lon="6.67484">
        <ele>755.777</ele>
        <time>2019-04-20T08:13:35Z</time>
      </trkpt>
      <trkpt lat="43.96241" lon="6.67486">
        <ele>755.773</ele>
        <time>2019-04-20T08:13:48Z</time>
      </trkpt>
      <trkpt lat="43.96237" lon="6.67488">
        <ele>756.671</ele>
        <time>2019-04-20T08:13:53Z</time>
      </trkpt>
      <trkpt lat="43.96229" lon="6.6749">
        <ele>757.434</ele>
        <time>2019-04-20T08:14:01Z</time>
      </trkpt>
      <trkpt lat="43.96233" lon="6.67495">
        <ele>759.336</ele>
        <time>2019-04-20T08:14:27Z</time>
      </trkpt>
      <trkpt lat="43.96236" lon="6.67496">
        <ele>759.209</ele>
        <time>2019-04-20T08:14:30Z</time>
      </trkpt>
      <trkpt lat="43.96242" lon="6.67501">
        <ele>760.343</ele>
        <time>2019-04-20T08:14:37Z</time>
      </trkpt>
      <trkpt lat="43.96249" lon="6.67504">
        <ele>761.046</ele>
        <time>2019-04-20T08:14:49Z</time>
      </trkpt>
      <trkpt lat="43.96246" lon="6.6751">
        <ele>762.643</ele>
        <time>2019-04-20T08:14:58Z</time>
      </trkpt>
      <trkpt lat="43.96252" lon="6.67514">
        <ele>763.988</ele>
        <time>2019-04-20T08:15:05Z</time>
      </trkpt>
      <trkpt lat="43.96259" lon="6.67518">
        <ele>766.151</ele>
        <time>2019-04-20T08:15:13Z</time>
      </trkpt>
      <trkpt lat="43.96262" lon="6.67524">
        <ele>768.094</ele>
        <time>2019-04-20T08:15:23Z</time>
      </trkpt>
      <trkpt lat="43.96255" lon="6.67532">
        <ele>769.823</ele>
        <time>2019-04-20T08:15:33Z</time>
      </trkpt>
      <trkpt lat="43.96258" lon="6.67534">
        <ele>770.431</ele>
        <time>2019-04-20T08:15:41Z</time>
      </trkpt>
      <trkpt lat="43.9626" lon="6.67537">
        <ele>772.158</ele>
        <time>2019-04-20T08:16:00Z</time>
      </trkpt>
      <trkpt lat="43.96257" lon="6.67538">
        <ele>772.217</ele>
        <time>2019-04-20T08:16:06Z</time>
      </trkpt>
      <trkpt lat="43.96256" lon="6.67543">
        <ele>773.292</ele>
        <time>2019-04-20T08:16:22Z</time>
      </trkpt>
      <trkpt lat="43.96253" lon="6.67543">
        <ele>774.809</ele>
        <time>2019-04-20T08:16:30Z</time>
      </trkpt>
      <trkpt lat="43.9625" lon="6.67546">
        <ele>776.409</ele>
        <time>2019-04-20T08:16:37Z</time>
      </trkpt>
      <trkpt lat="43.96245" lon="6.67551">
        <ele>777.916</ele>
        <time>2019-04-20T08:16:46Z</time>
      </trkpt>
      <trkpt lat="43.96241" lon="6.67554">
        <ele>778.529</ele>
        <time>2019-04-20T08:16:54Z</time>
      </trkpt>
      <trkpt lat="43.96237" lon="6.67552">
        <ele>778.11</ele>
        <time>2019-04-20T08:17:02Z</time>
      </trkpt>
      <trkpt lat="43.96243" lon="6.67558">
        <ele>778.511</ele>
        <time>2019-04-20T08:17:12Z</time>
      </trkpt>
      <trkpt lat="43.9623" lon="6.67559">
        <ele>778.686</ele>
        <time>2019-04-20T08:17:21Z</time>
      </trkpt>
      <trkpt lat="43.96216" lon="6.67568">
        <ele>781.57</ele>
        <time>2019-04-20T08:17:35Z</time>
      </trkpt>
      <trkpt lat="43.96219" lon="6.67569">
        <ele>782.753</ele>
        <time>2019-04-20T08:17:44Z</time>
      </trkpt>
      <trkpt lat="43.96218" lon="6.67572">
        <ele>784.37</ele>
        <time>2019-04-20T08:18:01Z</time>
      </trkpt>
      <trkpt lat="43.96213" lon="6.6758">
        <ele>784.932</ele>
        <time>2019-04-20T08:18:11Z</time>
      </trkpt>
      <trkpt lat="43.96206" lon="6.67592">
        <ele>785.147</ele>
        <time>2019-04-20T08:18:20Z</time>
      </trkpt>
      <trkpt lat="43.96203" lon="6.67599">
        <ele>787.033</ele>
        <time>2019-04-20T08:18:28Z</time>
      </trkpt>
      <trkpt lat="43.962" lon="6.67606">
        <ele>789.002</ele>
        <time>2019-04-20T08:18:39Z</time>
      </trkpt>
      <trkpt lat="43.96197" lon="6.67614">
        <ele>790.3</ele>
        <time>2019-04-20T08:18:49Z</time>
      </trkpt>
      <trkpt lat="43.96193" lon="6.67622">
        <ele>791.469</ele>
        <time>2019-04-20T08:19:02Z</time>
      </trkpt>
      <trkpt lat="43.96199" lon="6.67629">
        <ele>791.999</ele>
        <time>2019-04-20T08:19:29Z</time>
      </trkpt>
      <trkpt lat="43.962" lon="6.67631">
        <ele>791.729</ele>
        <time>2019-04-20T08:19:50Z</time>
      </trkpt>
      <trkpt lat="43.96203" lon="6.67636">
        <ele>793.158</ele>
        <time>2019-04-20T08:20:02Z</time>
      </trkpt>
      <trkpt lat="43.96207" lon="6.67636">
        <ele>794.441</ele>
        <time>2019-04-20T08:20:19Z</time>
      </trkpt>
      <trkpt lat="43.96215" lon="6.67632">
        <ele>796.291</ele>
        <time>2019-04-20T08:20:30Z</time>
      </trkpt>
      <trkpt lat="43.96217" lon="6.67629">
        <ele>798.415</ele>
        <time>2019-04-20T08:20:46Z</time>
      </trkpt>
      <trkpt lat="43.96219" lon="6.67634">
        <ele>799.969</ele>
        <time>2019-04-20T08:20:58Z</time>
      </trkpt>
      <trkpt lat="43.96215" lon="6.67637">
        <ele>801.635</ele>
        <time>2019-04-20T08:21:06Z</time>
      </trkpt>
      <trkpt lat="43.96215" lon="6.67643">
        <ele>802.276</ele>
        <time>2019-04-20T08:21:20Z</time>
      </trkpt>
      <trkpt lat="43.96218" lon="6.67646">
        <ele>804.231</ele>
        <time>2019-04-20T08:21:30Z</time>
      </trkpt>
      <trkpt lat="43.96217" lon="6.67651">
        <ele>806.33</ele>
        <time>2019-04-20T08:21:38Z</time>
      </trkpt>
      <trkpt lat="43.96212" lon="6.67653">
        <ele>806.534</ele>
        <time>2019-04-20T08:21:46Z</time>
      </trkpt>
      <trkpt lat="43.96208" lon="6.67653">
        <ele>807.012</ele>
        <time>2019-04-20T08:22:33Z</time>
      </trkpt>
      <trkpt lat="43.9621" lon="6.67659">
        <ele>809.257</ele>
        <time>2019-04-20T08:23:05Z</time>
      </trkpt>
      <trkpt lat="43.96217" lon="6.67663">
        <ele>810.75</ele>
        <time>2019-04-20T08:23:14Z</time>
      </trkpt>
      <trkpt lat="43.96219" lon="6.67666">
        <ele>810.884</ele>
        <time>2019-04-20T08:23:46Z</time>
      </trkpt>
      <trkpt lat="43.96221" lon="6.67671">
        <ele>812.179</ele>
        <time>2019-04-20T08:24:26Z</time>
      </trkpt>
      <trkpt lat="43.96222" lon="6.67675">
        <ele>813.655</ele>
        <time>2019-04-20T08:25:54Z</time>
      </trkpt>
      <trkpt lat="43.96226" lon="6.67679">
        <ele>815.237</ele>
        <time>2019-04-20T08:26:02Z</time>
      </trkpt>
      <trkpt lat="43.96228" lon="6.67682">
        <ele>815.039</ele>
        <time>2019-04-20T08:26:11Z</time>
      </trkpt>
      <trkpt lat="43.96231" lon="6.67673">
        <ele>814.953</ele>
        <time>2019-04-20T08:26:20Z</time>
      </trkpt>
      <trkpt lat="43.96229" lon="6.67676">
        <ele>813.864</ele>
        <time>2019-04-20T08:26:35Z</time>
      </trkpt>
      <trkpt lat="43.96223" lon="6.67673">
        <ele>813.626</ele>
        <time>2019-04-20T08:26:41Z</time>
      </trkpt>
      <trkpt lat="43.96222" lon="6.67679">
        <ele>812.275</ele>
        <time>2019-04-20T08:26:51Z</time>
      </trkpt>
      <trkpt lat="43.96218" lon="6.67686">
        <ele>813.89</ele>
        <time>2019-04-20T08:27:00Z</time>
      </trkpt>
      <trkpt lat="43.96217" lon="6.67695">
        <ele>814.302</ele>
        <time>2019-04-20T08:27:09Z</time>
      </trkpt>
      <trkpt lat="43.96212" lon="6.677">
        <ele>815.224</ele>
        <time>2019-04-20T08:27:16Z</time>
      </trkpt>
      <trkpt lat="43.96209" lon="6.67705">
        <ele>815.86</ele>
        <time>2019-04-20T08:27:21Z</time>
      </trkpt>
      <trkpt lat="43.96204" lon="6.67717">
        <ele>815.346</ele>
        <time>2019-04-20T08:27:31Z</time>
      </trkpt>
      <trkpt lat="43.96199" lon="6.67724">
        <ele>817.149</ele>
        <time>2019-04-20T08:27:44Z</time>
      </trkpt>
      <trkpt lat="43.96199" lon="6.6773">
        <ele>818.546</ele>
        <time>2019-04-20T08:27:51Z</time>
      </trkpt>
      <trkpt lat="43.96202" lon="6.67737">
        <ele>821.871</ele>
        <time>2019-04-20T08:28:06Z</time>
      </trkpt>
      <trkpt lat="43.962" lon="6.67743">
        <ele>822.592</ele>
        <time>2019-04-20T08:28:15Z</time>
      </trkpt>
      <trkpt lat="43.96196" lon="6.67745">
        <ele>824.397</ele>
        <time>2019-04-20T08:28:26Z</time>
      </trkpt>
      <trkpt lat="43.96193" lon="6.67746">
        <ele>825.281</ele>
        <time>2019-04-20T08:28:38Z</time>
      </trkpt>
      <trkpt lat="43.9619" lon="6.67747">
        <ele>825.277</ele>
        <time>2019-04-20T08:28:50Z</time>
      </trkpt>
      <trkpt lat="43.96188" lon="6.67752">
        <ele>827.27</ele>
        <time>2019-04-20T08:28:58Z</time>
      </trkpt>
      <trkpt lat="43.96186" lon="6.67756">
        <ele>828.003</ele>
        <time>2019-04-20T08:29:05Z</time>
      </trkpt>
      <trkpt lat="43.96185" lon="6.67764">
        <ele>830.184</ele>
        <time>2019-04-20T08:29:18Z</time>
      </trkpt>
      <trkpt lat="43.96186" lon="6.67767">
        <ele>830.458</ele>
        <time>2019-04-20T08:30:20Z</time>
      </trkpt>
      <trkpt lat="43.96182" lon="6.67775">
        <ele>831.601</ele>
        <time>2019-04-20T08:30:30Z</time>
      </trkpt>
      <trkpt lat="43.96182" lon="6.67779">
        <ele>833.304</ele>
        <time>2019-04-20T08:30:39Z</time>
      </trkpt>
      <trkpt lat="43.96179" lon="6.67785">
        <ele>834.421</ele>
        <time>2019-04-20T08:30:47Z</time>
      </trkpt>
      <trkpt lat="43.96178" lon="6.67789">
        <ele>835.568</ele>
        <time>2019-04-20T08:30:58Z</time>
      </trkpt>
      <trkpt lat="43.96176" lon="6.67796">
        <ele>835.828</ele>
        <time>2019-04-20T08:31:05Z</time>
      </trkpt>
      <trkpt lat="43.96169" lon="6.678">
        <ele>836.984</ele>
        <time>2019-04-20T08:31:15Z</time>
      </trkpt>
      <trkpt lat="43.96166" lon="6.67807">
        <ele>837.446</ele>
        <time>2019-04-20T08:31:22Z</time>
      </trkpt>
      <trkpt lat="43.96164" lon="6.67809">
        <ele>838.165</ele>
        <time>2019-04-20T08:31:52Z</time>
      </trkpt>
      <trkpt lat="43.96162" lon="6.67817">
        <ele>838.74</ele>
        <time>2019-04-20T08:32:00Z</time>
      </trkpt>
      <trkpt lat="43.9616" lon="6.67828">
        <ele>839.005</ele>
        <time>2019-04-20T08:32:08Z</time>
      </trkpt>
      <trkpt lat="43.96155" lon="6.67837">
        <ele>839.003</ele>
        <time>2019-04-20T08:32:17Z</time>
      </trkpt>
      <trkpt lat="43.96152" lon="6.67841">
        <ele>839.71</ele>
        <time>2019-04-20T08:32:25Z</time>
      </trkpt>
      <trkpt lat="43.96149" lon="6.6785">
        <ele>840.207</ele>
        <time>2019-04-20T08:32:33Z</time>
      </trkpt>
      <trkpt lat="43.96147" lon="6.67858">
        <ele>841.571</ele>
        <time>2019-04-20T08:32:41Z</time>
      </trkpt>
      <trkpt lat="43.96144" lon="6.67864">
        <ele>842.454</ele>
        <time>2019-04-20T08:32:49Z</time>
      </trkpt>
      <trkpt lat="43.96146" lon="6.67867">
        <ele>842.955</ele>
        <time>2019-04-20T08:34:31Z</time>
      </trkpt>
      <trkpt lat="43.96148" lon="6.67863">
        <ele>843.671</ele>
        <time>2019-04-20T08:34:39Z</time>
      </trkpt>
      <trkpt lat="43.96148" lon="6.67868">
        <ele>845.301</ele>
        <time>2019-04-20T08:34:45Z</time>
      </trkpt>
      <trkpt lat="43.96146" lon="6.67874">
        <ele>846.562</ele>
        <time>2019-04-20T08:34:54Z</time>
      </trkpt>
      <trkpt lat="43.9614" lon="6.67885">
        <ele>849.116</ele>
        <time>2019-04-20T08:35:20Z</time>
      </trkpt>
      <trkpt lat="43.96134" lon="6.67898">
        <ele>850.847</ele>
        <time>2019-04-20T08:35:42Z</time>
      </trkpt>
      <trkpt lat="43.96133" lon="6.67901">
        <ele>851.35</ele>
        <time>2019-04-20T08:35:45Z</time>
      </trkpt>
      <trkpt lat="43.96129" lon="6.67902">
        <ele>850.811</ele>
        <time>2019-04-20T08:35:56Z</time>
      </trkpt>
      <trkpt lat="43.96126" lon="6.67904">
        <ele>850.581</ele>
        <time>2019-04-20T08:36:02Z</time>
      </trkpt>
      <trkpt lat="43.96115" lon="6.67915">
        <ele>850.927</ele>
        <time>2019-04-20T08:36:13Z</time>
      </trkpt>
      <trkpt lat="43.96111" lon="6.67921">
        <ele>851.853</ele>
        <time>2019-04-20T08:36:21Z</time>
      </trkpt>
      <trkpt lat="43.96104" lon="6.67927">
        <ele>853.581</ele>
        <time>2019-04-20T08:36:33Z</time>
      </trkpt>
      <trkpt lat="43.96099" lon="6.67932">
        <ele>852.654</ele>
        <time>2019-04-20T08:36:42Z</time>
      </trkpt>
      <trkpt lat="43.96091" lon="6.67935">
        <ele>852.341</ele>
        <time>2019-04-20T08:36:54Z</time>
      </trkpt>
      <trkpt lat="43.96088" lon="6.67934">
        <ele>852.328</ele>
        <time>2019-04-20T08:37:04Z</time>
      </trkpt>
      <trkpt lat="43.96084" lon="6.67945">
        <ele>853.1</ele>
        <time>2019-04-20T08:38:03Z</time>
      </trkpt>
      <trkpt lat="43.96081" lon="6.67955">
        <ele>855.772</ele>
        <time>2019-04-20T08:38:27Z</time>
      </trkpt>
      <trkpt lat="43.96077" lon="6.67952">
        <ele>856.186</ele>
        <time>2019-04-20T08:38:46Z</time>
      </trkpt>
      <trkpt lat="43.96077" lon="6.67958">
        <ele>856.761</ele>
        <time>2019-04-20T08:38:58Z</time>
      </trkpt>
      <trkpt lat="43.96074" lon="6.67957">
        <ele>856.774</ele>
        <time>2019-04-20T08:39:09Z</time>
      </trkpt>
      <trkpt lat="43.9607" lon="6.67958">
        <ele>858.955</ele>
        <time>2019-04-20T08:39:32Z</time>
      </trkpt>
      <trkpt lat="43.96069" lon="6.6796">
        <ele>859.815</ele>
        <time>2019-04-20T08:40:12Z</time>
      </trkpt>
      <trkpt lat="43.96068" lon="6.67967">
        <ele>861.542</ele>
        <time>2019-04-20T08:40:21Z</time>
      </trkpt>
      <trkpt lat="43.96067" lon="6.67971">
        <ele>862.198</ele>
        <time>2019-04-20T08:40:30Z</time>
      </trkpt>
      <trkpt lat="43.96065" lon="6.67977">
        <ele>864.488</ele>
        <time>2019-04-20T08:40:41Z</time>
      </trkpt>
      <trkpt lat="43.96062" lon="6.67985">
        <ele>866.838</ele>
        <time>2019-04-20T08:40:52Z</time>
      </trkpt>
      <trkpt lat="43.96058" lon="6.67991">
        <ele>868.301</ele>
        <time>2019-04-20T08:41:23Z</time>
      </trkpt>
      <trkpt lat="43.96057" lon="6.67995">
        <ele>869.181</ele>
        <time>2019-04-20T08:41:26Z</time>
      </trkpt>
      <trkpt lat="43.96055" lon="6.67998">
        <ele>869.887</ele>
        <time>2019-04-20T08:41:34Z</time>
      </trkpt>
      <trkpt lat="43.96053" lon="6.68002">
        <ele>870.932</ele>
        <time>2019-04-20T08:41:43Z</time>
      </trkpt>
      <trkpt lat="43.9605" lon="6.68003">
        <ele>872.291</ele>
        <time>2019-04-20T08:41:56Z</time>
      </trkpt>
      <trkpt lat="43.96049" lon="6.68007">
        <ele>872.923</ele>
        <time>2019-04-20T08:42:03Z</time>
      </trkpt>
      <trkpt lat="43.96056" lon="6.68007">
        <ele>874.877</ele>
        <time>2019-04-20T08:42:26Z</time>
      </trkpt>
      <trkpt lat="43.96061" lon="6.68007">
        <ele>875.313</ele>
        <time>2019-04-20T08:42:32Z</time>
      </trkpt>
      <trkpt lat="43.96063" lon="6.68001">
        <ele>877.087</ele>
        <time>2019-04-20T08:42:41Z</time>
      </trkpt>
      <trkpt lat="43.96067" lon="6.67997">
        <ele>877.791</ele>
        <time>2019-04-20T08:42:53Z</time>
      </trkpt>
      <trkpt lat="43.96077" lon="6.67993">
        <ele>878.934</ele>
        <time>2019-04-20T08:43:06Z</time>
      </trkpt>
      <trkpt lat="43.96081" lon="6.67992">
        <ele>881.273</ele>
        <time>2019-04-20T08:43:17Z</time>
      </trkpt>
      <trkpt lat="43.96079" lon="6.67997">
        <ele>882.368</ele>
        <time>2019-04-20T08:43:32Z</time>
      </trkpt>
      <trkpt lat="43.96077" lon="6.68">
        <ele>882.915</ele>
        <time>2019-04-20T08:43:42Z</time>
      </trkpt>
      <trkpt lat="43.96082" lon="6.68002">
        <ele>884.564</ele>
        <time>2019-04-20T08:43:49Z</time>
      </trkpt>
      <trkpt lat="43.96086" lon="6.68003">
        <ele>886.243</ele>
        <time>2019-04-20T08:43:57Z</time>
      </trkpt>
      <trkpt lat="43.96085" lon="6.68007">
        <ele>886.581</ele>
        <time>2019-04-20T08:44:04Z</time>
      </trkpt>
      <trkpt lat="43.96083" lon="6.68011">
        <ele>888.309</ele>
        <time>2019-04-20T08:44:10Z</time>
      </trkpt>
      <trkpt lat="43.9608" lon="6.68015">
        <ele>889.696</ele>
        <time>2019-04-20T08:44:18Z</time>
      </trkpt>
      <trkpt lat="43.96078" lon="6.68022">
        <ele>891.107</ele>
        <time>2019-04-20T08:44:35Z</time>
      </trkpt>
      <trkpt lat="43.96074" lon="6.68025">
        <ele>891.814</ele>
        <time>2019-04-20T08:44:47Z</time>
      </trkpt>
      <trkpt lat="43.96081" lon="6.68023">
        <ele>893.681</ele>
        <time>2019-04-20T08:45:13Z</time>
      </trkpt>
      <trkpt lat="43.96086" lon="6.6802">
        <ele>894.98</ele>
        <time>2019-04-20T08:45:24Z</time>
      </trkpt>
      <trkpt lat="43.96091" lon="6.68016">
        <ele>896.502</ele>
        <time>2019-04-20T08:45:33Z</time>
      </trkpt>
      <trkpt lat="43.96097" lon="6.68013">
        <ele>898.324</ele>
        <time>2019-04-20T08:45:42Z</time>
      </trkpt>
      <trkpt lat="43.961" lon="6.68013">
        <ele>899.201</ele>
        <time>2019-04-20T08:45:55Z</time>
      </trkpt>
      <trkpt lat="43.96102" lon="6.68008">
        <ele>899.796</ele>
        <time>2019-04-20T08:46:19Z</time>
      </trkpt>
      <trkpt lat="43.96108" lon="6.68003">
        <ele>901.085</ele>
        <time>2019-04-20T08:46:28Z</time>
      </trkpt>
      <trkpt lat="43.96112" lon="6.68007">
        <ele>902.638</ele>
        <time>2019-04-20T08:46:51Z</time>
      </trkpt>
      <trkpt lat="43.96116" lon="6.68009">
        <ele>903.947</ele>
        <time>2019-04-20T08:47:10Z</time>
      </trkpt>
      <trkpt lat="43.96119" lon="6.68005">
        <ele>903.831</ele>
        <time>2019-04-20T08:47:21Z</time>
      </trkpt>
      <trkpt lat="43.96123" lon="6.68005">
        <ele>903.826</ele>
        <time>2019-04-20T08:47:36Z</time>
      </trkpt>
      <trkpt lat="43.96126" lon="6.68003">
        <ele>903.34</ele>
        <time>2019-04-20T08:47:52Z</time>
      </trkpt>
      <trkpt lat="43.96128" lon="6.68">
        <ele>901.702</ele>
        <time>2019-04-20T08:48:06Z</time>
      </trkpt>
      <trkpt lat="43.96127" lon="6.67994">
        <ele>899.907</ele>
        <time>2019-04-20T08:48:13Z</time>
      </trkpt>
      <trkpt lat="43.96133" lon="6.67986">
        <ele>899.481</ele>
        <time>2019-04-20T08:48:20Z</time>
      </trkpt>
      <trkpt lat="43.96142" lon="6.67986">
        <ele>899.775</ele>
        <time>2019-04-20T08:48:30Z</time>
      </trkpt>
      <trkpt lat="43.96142" lon="6.67981">
        <ele>898.638</ele>
        <time>2019-04-20T08:48:37Z</time>
      </trkpt>
      <trkpt lat="43.96143" lon="6.67974">
        <ele>897.456</ele>
        <time>2019-04-20T08:48:45Z</time>
      </trkpt>
      <trkpt lat="43.96151" lon="6.67972">
        <ele>898.529</ele>
        <time>2019-04-20T08:48:53Z</time>
      </trkpt>
      <trkpt lat="43.96154" lon="6.67973">
        <ele>899.099</ele>
        <time>2019-04-20T08:49:01Z</time>
      </trkpt>
      <trkpt lat="43.96156" lon="6.67968">
        <ele>900.499</ele>
        <time>2019-04-20T08:49:08Z</time>
      </trkpt>
      <trkpt lat="43.96159" lon="6.67968">
        <ele>901.833</ele>
        <time>2019-04-20T08:49:14Z</time>
      </trkpt>
      <trkpt lat="43.96164" lon="6.67968">
        <ele>903.304</ele>
        <time>2019-04-20T08:49:24Z</time>
      </trkpt>
      <trkpt lat="43.96167" lon="6.67967">
        <ele>905.749</ele>
        <time>2019-04-20T08:49:33Z</time>
      </trkpt>
      <trkpt lat="43.96171" lon="6.67969">
        <ele>908.13</ele>
        <time>2019-04-20T08:49:45Z</time>
      </trkpt>
      <trkpt lat="43.96176" lon="6.6797">
        <ele>909.307</ele>
        <time>2019-04-20T08:49:54Z</time>
      </trkpt>
      <trkpt lat="43.96179" lon="6.67968">
        <ele>913.03</ele>
        <time>2019-04-20T08:50:21Z</time>
      </trkpt>
      <trkpt lat="43.96183" lon="6.67969">
        <ele>913.452</ele>
        <time>2019-04-20T08:50:32Z</time>
      </trkpt>
      <trkpt lat="43.96187" lon="6.6797">
        <ele>913.453</ele>
        <time>2019-04-20T08:50:46Z</time>
      </trkpt>
      <trkpt lat="43.96192" lon="6.67972">
        <ele>913.114</ele>
        <time>2019-04-20T08:50:53Z</time>
      </trkpt>
      <trkpt lat="43.96199" lon="6.67964">
        <ele>911.774</ele>
        <time>2019-04-20T08:51:04Z</time>
      </trkpt>
      <trkpt lat="43.96205" lon="6.67964">
        <ele>912.381</ele>
        <time>2019-04-20T08:51:13Z</time>
      </trkpt>
      <trkpt lat="43.96208" lon="6.6797">
        <ele>913.818</ele>
        <time>2019-04-20T08:51:29Z</time>
      </trkpt>
      <trkpt lat="43.96207" lon="6.67978">
        <ele>914.978</ele>
        <time>2019-04-20T08:51:41Z</time>
      </trkpt>
      <trkpt lat="43.96205" lon="6.67981">
        <ele>916.933</ele>
        <time>2019-04-20T08:51:48Z</time>
      </trkpt>
      <trkpt lat="43.96201" lon="6.67984">
        <ele>918.097</ele>
        <time>2019-04-20T08:51:55Z</time>
      </trkpt>
      <trkpt lat="43.96202" lon="6.67988">
        <ele>917.733</ele>
        <time>2019-04-20T08:52:09Z</time>
      </trkpt>
      <trkpt lat="43.96198" lon="6.67991">
        <ele>918.385</ele>
        <time>2019-04-20T08:52:29Z</time>
      </trkpt>
      <trkpt lat="43.96195" lon="6.67994">
        <ele>920.139</ele>
        <time>2019-04-20T08:52:41Z</time>
      </trkpt>
      <trkpt lat="43.962" lon="6.6801">
        <ele>921.855</ele>
        <time>2019-04-20T08:53:00Z</time>
      </trkpt>
      <trkpt lat="43.96183" lon="6.68034">
        <ele>922.156</ele>
        <time>2019-04-20T08:53:12Z</time>
      </trkpt>
      <trkpt lat="43.96176" lon="6.68031">
        <ele>922.31</ele>
        <time>2019-04-20T08:53:36Z</time>
      </trkpt>
      <trkpt lat="43.96161" lon="6.68029">
        <ele>924.267</ele>
        <time>2019-04-20T08:54:49Z</time>
      </trkpt>
      <trkpt lat="43.96158" lon="6.68031">
        <ele>923.945</ele>
        <time>2019-04-20T08:55:00Z</time>
      </trkpt>
      <trkpt lat="43.96152" lon="6.68024">
        <ele>922.009</ele>
        <time>2019-04-20T08:55:35Z</time>
      </trkpt>
      <trkpt lat="43.96149" lon="6.68019">
        <ele>918.985</ele>
        <time>2019-04-20T08:56:20Z</time>
      </trkpt>
      <trkpt lat="43.96142" lon="6.68031">
        <ele>918.92</ele>
        <time>2019-04-20T08:56:37Z</time>
      </trkpt>
      <trkpt lat="43.96133" lon="6.68024">
        <ele>918.657</ele>
        <time>2019-04-20T08:56:42Z</time>
      </trkpt>
      <trkpt lat="43.96117" lon="6.68013">
        <ele>918.964</ele>
        <time>2019-04-20T08:56:53Z</time>
      </trkpt>
      <trkpt lat="43.96112" lon="6.6802">
        <ele>919.817</ele>
        <time>2019-04-20T08:57:11Z</time>
      </trkpt>
      <trkpt lat="43.96107" lon="6.68015">
        <ele>919.281</ele>
        <time>2019-04-20T08:57:27Z</time>
      </trkpt>
      <trkpt lat="43.96097" lon="6.68018">
        <ele>918.865</ele>
        <time>2019-04-20T08:57:58Z</time>
      </trkpt>
      <trkpt lat="43.96095" lon="6.68022">
        <ele>919.292</ele>
        <time>2019-04-20T08:58:05Z</time>
      </trkpt>
      <trkpt lat="43.96091" lon="6.68027">
        <ele>917.857</ele>
        <time>2019-04-20T08:58:13Z</time>
      </trkpt>
      <trkpt lat="43.96088" lon="6.68023">
        <ele>917.248</ele>
        <time>2019-04-20T08:58:19Z</time>
      </trkpt>
      <trkpt lat="43.96082" lon="6.68027">
        <ele>917.663</ele>
        <time>2019-04-20T08:58:26Z</time>
      </trkpt>
      <trkpt lat="43.96082" lon="6.68033">
        <ele>918.456</ele>
        <time>2019-04-20T08:58:34Z</time>
      </trkpt>
      <trkpt lat="43.9608" lon="6.68043">
        <ele>919.973</ele>
        <time>2019-04-20T08:58:43Z</time>
      </trkpt>
      <trkpt lat="43.96078" lon="6.68046">
        <ele>920.669</ele>
        <time>2019-04-20T08:58:52Z</time>
      </trkpt>
      <trkpt lat="43.96072" lon="6.68052">
        <ele>921.612</ele>
        <time>2019-04-20T08:59:00Z</time>
      </trkpt>
      <trkpt lat="43.96072" lon="6.68056">
        <ele>922.106</ele>
        <time>2019-04-20T08:59:05Z</time>
      </trkpt>
      <trkpt lat="43.96071" lon="6.68062">
        <ele>923.322</ele>
        <time>2019-04-20T08:59:15Z</time>
      </trkpt>
      <trkpt lat="43.96067" lon="6.68066">
        <ele>923.48</ele>
        <time>2019-04-20T08:59:29Z</time>
      </trkpt>
      <trkpt lat="43.96058" lon="6.68064">
        <ele>925.138</ele>
        <time>2019-04-20T08:59:41Z</time>
      </trkpt>
      <trkpt lat="43.96056" lon="6.68069">
        <ele>925.476</ele>
        <time>2019-04-20T08:59:44Z</time>
      </trkpt>
      <trkpt lat="43.96051" lon="6.68075">
        <ele>926.119</ele>
        <time>2019-04-20T08:59:54Z</time>
      </trkpt>
      <trkpt lat="43.96049" lon="6.68082">
        <ele>925.691</ele>
        <time>2019-04-20T09:00:26Z</time>
      </trkpt>
      <trkpt lat="43.96047" lon="6.68086">
        <ele>925.637</ele>
        <time>2019-04-20T09:00:38Z</time>
      </trkpt>
      <trkpt lat="43.96045" lon="6.68091">
        <ele>926.221</ele>
        <time>2019-04-20T09:00:46Z</time>
      </trkpt>
      <trkpt lat="43.96044" lon="6.68096">
        <ele>926.916</ele>
        <time>2019-04-20T09:00:50Z</time>
      </trkpt>
      <trkpt lat="43.96042" lon="6.68099">
        <ele>927.655</ele>
        <time>2019-04-20T09:00:53Z</time>
      </trkpt>
      <trkpt lat="43.96038" lon="6.68105">
        <ele>928.791</ele>
        <time>2019-04-20T09:01:03Z</time>
      </trkpt>
      <trkpt lat="43.96036" lon="6.68134">
        <ele>928.953</ele>
        <time>2019-04-20T09:01:38Z</time>
      </trkpt>
      <trkpt lat="43.9604" lon="6.68158">
        <ele>928.958</ele>
        <time>2019-04-20T09:01:53Z</time>
      </trkpt>
      <trkpt lat="43.96037" lon="6.6817">
        <ele>929.525</ele>
        <time>2019-04-20T09:02:06Z</time>
      </trkpt>
      <trkpt lat="43.96033" lon="6.68157">
        <ele>929.447</ele>
        <time>2019-04-20T09:02:20Z</time>
      </trkpt>
      <trkpt lat="43.96025" lon="6.68158">
        <ele>929.719</ele>
        <time>2019-04-20T09:02:32Z</time>
      </trkpt>
      <trkpt lat="43.9602" lon="6.68154">
        <ele>929.945</ele>
        <time>2019-04-20T09:02:57Z</time>
      </trkpt>
      <trkpt lat="43.9602" lon="6.6815">
        <ele>929.954</ele>
        <time>2019-04-20T09:03:42Z</time>
      </trkpt>
      <trkpt lat="43.96019" lon="6.68154">
        <ele>929.797</ele>
        <time>2019-04-20T09:04:07Z</time>
      </trkpt>
      <trkpt lat="43.96025" lon="6.68168">
        <ele>930.174</ele>
        <time>2019-04-20T09:04:17Z</time>
      </trkpt>
      <trkpt lat="43.96033" lon="6.68194">
        <ele>930.767</ele>
        <time>2019-04-20T09:04:31Z</time>
      </trkpt>
      <trkpt lat="43.9601" lon="6.68188">
        <ele>931.474</ele>
        <time>2019-04-20T09:04:45Z</time>
      </trkpt>
      <trkpt lat="43.96002" lon="6.68186">
        <ele>931.644</ele>
        <time>2019-04-20T09:05:05Z</time>
      </trkpt>
      <trkpt lat="43.96002" lon="6.68192">
        <ele>932.949</ele>
        <time>2019-04-20T09:05:12Z</time>
      </trkpt>
      <trkpt lat="43.95999" lon="6.682">
        <ele>934.129</ele>
        <time>2019-04-20T09:05:20Z</time>
      </trkpt>
      <trkpt lat="43.95994" lon="6.6821">
        <ele>934.599</ele>
        <time>2019-04-20T09:05:32Z</time>
      </trkpt>
      <trkpt lat="43.95994" lon="6.68215">
        <ele>935.713</ele>
        <time>2019-04-20T09:05:39Z</time>
      </trkpt>
      <trkpt lat="43.95992" lon="6.68219">
        <ele>937.251</ele>
        <time>2019-04-20T09:05:48Z</time>
      </trkpt>
      <trkpt lat="43.95984" lon="6.68225">
        <ele>937.068</ele>
        <time>2019-04-20T09:05:55Z</time>
      </trkpt>
      <trkpt lat="43.9598" lon="6.68226">
        <ele>936.13</ele>
        <time>2019-04-20T09:06:01Z</time>
      </trkpt>
      <trkpt lat="43.95979" lon="6.68221">
        <ele>935.957</ele>
        <time>2019-04-20T09:06:18Z</time>
      </trkpt>
      <trkpt lat="43.95976" lon="6.6822">
        <ele>935.728</ele>
        <time>2019-04-20T09:06:30Z</time>
      </trkpt>
      <trkpt lat="43.95974" lon="6.68218">
        <ele>934.267</ele>
        <time>2019-04-20T09:06:43Z</time>
      </trkpt>
      <trkpt lat="43.95972" lon="6.68226">
        <ele>934.201</ele>
        <time>2019-04-20T09:06:50Z</time>
      </trkpt>
      <trkpt lat="43.95967" lon="6.68232">
        <ele>933.086</ele>
        <time>2019-04-20T09:07:00Z</time>
      </trkpt>
      <trkpt lat="43.95965" lon="6.68236">
        <ele>933.533</ele>
        <time>2019-04-20T09:07:08Z</time>
      </trkpt>
      <trkpt lat="43.95966" lon="6.68245">
        <ele>933.13</ele>
        <time>2019-04-20T09:07:16Z</time>
      </trkpt>
      <trkpt lat="43.95969" lon="6.68248">
        <ele>933.314</ele>
        <time>2019-04-20T09:07:29Z</time>
      </trkpt>
      <trkpt lat="43.95969" lon="6.68259">
        <ele>933.113</ele>
        <time>2019-04-20T09:09:39Z</time>
      </trkpt>
      <trkpt lat="43.95966" lon="6.68268">
        <ele>934.23</ele>
        <time>2019-04-20T09:09:46Z</time>
      </trkpt>
      <trkpt lat="43.95964" lon="6.68274">
        <ele>933.996</ele>
        <time>2019-04-20T09:10:48Z</time>
      </trkpt>
      <trkpt lat="43.95968" lon="6.68271">
        <ele>933.305</ele>
        <time>2019-04-20T09:11:40Z</time>
      </trkpt>
      <trkpt lat="43.95968" lon="6.68275">
        <ele>933.882</ele>
        <time>2019-04-20T09:13:33Z</time>
      </trkpt>
      <trkpt lat="43.9597" lon="6.68284">
        <ele>934.527</ele>
        <time>2019-04-20T09:13:42Z</time>
      </trkpt>
      <trkpt lat="43.95975" lon="6.683">
        <ele>937.606</ele>
        <time>2019-04-20T09:14:02Z</time>
      </trkpt>
      <trkpt lat="43.95976" lon="6.68304">
        <ele>939.178</ele>
        <time>2019-04-20T09:14:06Z</time>
      </trkpt>
      <trkpt lat="43.95982" lon="6.6832">
        <ele>941.332</ele>
        <time>2019-04-20T09:14:19Z</time>
      </trkpt>
      <trkpt lat="43.95983" lon="6.68327">
        <ele>942.26</ele>
        <time>2019-04-20T09:14:26Z</time>
      </trkpt>
      <trkpt lat="43.95994" lon="6.68333">
        <ele>943.473</ele>
        <time>2019-04-20T09:14:35Z</time>
      </trkpt>
      <trkpt lat="43.96001" lon="6.68342">
        <ele>944.801</ele>
        <time>2019-04-20T09:14:42Z</time>
      </trkpt>
      <trkpt lat="43.96005" lon="6.6835">
        <ele>946.052</ele>
        <time>2019-04-20T09:14:50Z</time>
      </trkpt>
      <trkpt lat="43.96013" lon="6.68361">
        <ele>947.093</ele>
        <time>2019-04-20T09:14:57Z</time>
      </trkpt>
      <trkpt lat="43.96019" lon="6.6837">
        <ele>947.322</ele>
        <time>2019-04-20T09:15:05Z</time>
      </trkpt>
      <trkpt lat="43.96019" lon="6.68376">
        <ele>948.467</ele>
        <time>2019-04-20T09:15:12Z</time>
      </trkpt>
      <trkpt lat="43.96005" lon="6.68381">
        <ele>949.229</ele>
        <time>2019-04-20T09:15:22Z</time>
      </trkpt>
      <trkpt lat="43.95991" lon="6.68386">
        <ele>949.992</ele>
        <time>2019-04-20T09:15:32Z</time>
      </trkpt>
      <trkpt lat="43.95994" lon="6.6839">
        <ele>950.585</ele>
        <time>2019-04-20T09:15:46Z</time>
      </trkpt>
      <trkpt lat="43.95994" lon="6.68394">
        <ele>950.72</ele>
        <time>2019-04-20T09:15:57Z</time>
      </trkpt>
      <trkpt lat="43.95996" lon="6.68398">
        <ele>951.685</ele>
        <time>2019-04-20T09:16:19Z</time>
      </trkpt>
      <trkpt lat="43.96003" lon="6.68406">
        <ele>954.403</ele>
        <time>2019-04-20T09:16:34Z</time>
      </trkpt>
      <trkpt lat="43.96006" lon="6.6841">
        <ele>955.762</ele>
        <time>2019-04-20T09:16:44Z</time>
      </trkpt>
      <trkpt lat="43.96011" lon="6.68414">
        <ele>955.35</ele>
        <time>2019-04-20T09:17:07Z</time>
      </trkpt>
      <trkpt lat="43.96014" lon="6.68416">
        <ele>956.198</ele>
        <time>2019-04-20T09:17:11Z</time>
      </trkpt>
      <trkpt lat="43.96019" lon="6.68415">
        <ele>956.342</ele>
        <time>2019-04-20T09:17:19Z</time>
      </trkpt>
      <trkpt lat="43.96022" lon="6.68416">
        <ele>957.503</ele>
        <time>2019-04-20T09:17:25Z</time>
      </trkpt>
      <trkpt lat="43.96027" lon="6.68424">
        <ele>957.912</ele>
        <time>2019-04-20T09:17:38Z</time>
      </trkpt>
      <trkpt lat="43.96033" lon="6.6842">
        <ele>958.321</ele>
        <time>2019-04-20T09:18:00Z</time>
      </trkpt>
      <trkpt lat="43.96032" lon="6.68426">
        <ele>958.886</ele>
        <time>2019-04-20T09:18:41Z</time>
      </trkpt>
      <trkpt lat="43.96034" lon="6.68431">
        <ele>958.07</ele>
        <time>2019-04-20T09:18:52Z</time>
      </trkpt>
      <trkpt lat="43.96039" lon="6.68436">
        <ele>959.381</ele>
        <time>2019-04-20T09:19:01Z</time>
      </trkpt>
      <trkpt lat="43.96042" lon="6.68438">
        <ele>959.368</ele>
        <time>2019-04-20T09:19:04Z</time>
      </trkpt>
      <trkpt lat="43.96049" lon="6.68443">
        <ele>960.195</ele>
        <time>2019-04-20T09:19:12Z</time>
      </trkpt>
      <trkpt lat="43.96056" lon="6.6845">
        <ele>961.107</ele>
        <time>2019-04-20T09:19:22Z</time>
      </trkpt>
      <trkpt lat="43.9606" lon="6.68453">
        <ele>961.967</ele>
        <time>2019-04-20T09:19:28Z</time>
      </trkpt>
      <trkpt lat="43.96068" lon="6.68459">
        <ele>963.293</ele>
        <time>2019-04-20T09:19:38Z</time>
      </trkpt>
      <trkpt lat="43.96074" lon="6.68466">
        <ele>963.991</ele>
        <time>2019-04-20T09:19:49Z</time>
      </trkpt>
      <trkpt lat="43.96078" lon="6.68467">
        <ele>964.016</ele>
        <time>2019-04-20T09:19:57Z</time>
      </trkpt>
      <trkpt lat="43.9609" lon="6.68471">
        <ele>963.798</ele>
        <time>2019-04-20T09:20:08Z</time>
      </trkpt>
      <trkpt lat="43.96105" lon="6.6848">
        <ele>964.796</ele>
        <time>2019-04-20T09:20:30Z</time>
      </trkpt>
      <trkpt lat="43.96114" lon="6.6849">
        <ele>967.582</ele>
        <time>2019-04-20T09:20:44Z</time>
      </trkpt>
      <trkpt lat="43.96117" lon="6.68496">
        <ele>969.673</ele>
        <time>2019-04-20T09:20:53Z</time>
      </trkpt>
      <trkpt lat="43.96121" lon="6.68498">
        <ele>970.386</ele>
        <time>2019-04-20T09:21:00Z</time>
      </trkpt>
      <trkpt lat="43.96125" lon="6.685">
        <ele>971.702</ele>
        <time>2019-04-20T09:21:08Z</time>
      </trkpt>
      <trkpt lat="43.96133" lon="6.68504">
        <ele>972.753</ele>
        <time>2019-04-20T09:21:17Z</time>
      </trkpt>
      <trkpt lat="43.96142" lon="6.685">
        <ele>972.917</ele>
        <time>2019-04-20T09:21:36Z</time>
      </trkpt>
      <trkpt lat="43.96148" lon="6.68501">
        <ele>972.719</ele>
        <time>2019-04-20T09:21:45Z</time>
      </trkpt>
      <trkpt lat="43.96153" lon="6.68501">
        <ele>973.488</ele>
        <time>2019-04-20T09:21:53Z</time>
      </trkpt>
      <trkpt lat="43.96158" lon="6.68496">
        <ele>974.962</ele>
        <time>2019-04-20T09:22:05Z</time>
      </trkpt>
      <trkpt lat="43.9616" lon="6.68493">
        <ele>976.323</ele>
        <time>2019-04-20T09:22:11Z</time>
      </trkpt>
      <trkpt lat="43.96165" lon="6.68487">
        <ele>977.819</ele>
        <time>2019-04-20T09:22:20Z</time>
      </trkpt>
      <trkpt lat="43.96168" lon="6.68492">
        <ele>976.926</ele>
        <time>2019-04-20T09:22:29Z</time>
      </trkpt>
      <trkpt lat="43.96173" lon="6.68492">
        <ele>978.394</ele>
        <time>2019-04-20T09:22:46Z</time>
      </trkpt>
      <trkpt lat="43.96174" lon="6.68487">
        <ele>979.203</ele>
        <time>2019-04-20T09:22:53Z</time>
      </trkpt>
      <trkpt lat="43.96178" lon="6.68482">
        <ele>980.701</ele>
        <time>2019-04-20T09:23:06Z</time>
      </trkpt>
      <trkpt lat="43.96181" lon="6.68483">
        <ele>981.31</ele>
        <time>2019-04-20T09:23:13Z</time>
      </trkpt>
      <trkpt lat="43.96184" lon="6.68479">
        <ele>982.55</ele>
        <time>2019-04-20T09:23:25Z</time>
      </trkpt>
      <trkpt lat="43.96188" lon="6.68473">
        <ele>983.698</ele>
        <time>2019-04-20T09:23:32Z</time>
      </trkpt>
      <trkpt lat="43.96189" lon="6.68467">
        <ele>984.992</ele>
        <time>2019-04-20T09:23:38Z</time>
      </trkpt>
      <trkpt lat="43.96194" lon="6.68463">
        <ele>985.471</ele>
        <time>2019-04-20T09:23:46Z</time>
      </trkpt>
      <trkpt lat="43.962" lon="6.6846">
        <ele>986.847</ele>
        <time>2019-04-20T09:23:54Z</time>
      </trkpt>
      <trkpt lat="43.96204" lon="6.68457">
        <ele>988.114</ele>
        <time>2019-04-20T09:24:01Z</time>
      </trkpt>
      <trkpt lat="43.96209" lon="6.68454">
        <ele>988.115</ele>
        <time>2019-04-20T09:24:11Z</time>
      </trkpt>
      <trkpt lat="43.9621" lon="6.68451">
        <ele>989.802</ele>
        <time>2019-04-20T09:24:35Z</time>
      </trkpt>
      <trkpt lat="43.96213" lon="6.68447">
        <ele>990.193</ele>
        <time>2019-04-20T09:24:43Z</time>
      </trkpt>
      <trkpt lat="43.96217" lon="6.68439">
        <ele>990.438</ele>
        <time>2019-04-20T09:24:52Z</time>
      </trkpt>
      <trkpt lat="43.96222" lon="6.68433">
        <ele>991.126</ele>
        <time>2019-04-20T09:25:00Z</time>
      </trkpt>
      <trkpt lat="43.96227" lon="6.68428">
        <ele>992.488</ele>
        <time>2019-04-20T09:25:13Z</time>
      </trkpt>
      <trkpt lat="43.96232" lon="6.68426">
        <ele>992.97</ele>
        <time>2019-04-20T09:25:19Z</time>
      </trkpt>
      <trkpt lat="43.96238" lon="6.68425">
        <ele>993.601</ele>
        <time>2019-04-20T09:25:26Z</time>
      </trkpt>
      <trkpt lat="43.96243" lon="6.68427">
        <ele>994.092</ele>
        <time>2019-04-20T09:25:32Z</time>
      </trkpt>
      <trkpt lat="43.96247" lon="6.68425">
        <ele>994.323</ele>
        <time>2019-04-20T09:25:36Z</time>
      </trkpt>
      <trkpt lat="43.96252" lon="6.6842">
        <ele>995.228</ele>
        <time>2019-04-20T09:25:43Z</time>
      </trkpt>
      <trkpt lat="43.96257" lon="6.68418">
        <ele>995.311</ele>
        <time>2019-04-20T09:25:51Z</time>
      </trkpt>
      <trkpt lat="43.96259" lon="6.68413">
        <ele>995.602</ele>
        <time>2019-04-20T09:26:26Z</time>
      </trkpt>
      <trkpt lat="43.96265" lon="6.68412">
        <ele>995.771</ele>
        <time>2019-04-20T09:26:34Z</time>
      </trkpt>
      <trkpt lat="43.96268" lon="6.68416">
        <ele>996.295</ele>
        <time>2019-04-20T09:26:41Z</time>
      </trkpt>
      <trkpt lat="43.96268" lon="6.68421">
        <ele>998.613</ele>
        <time>2019-04-20T09:26:56Z</time>
      </trkpt>
      <trkpt lat="43.96274" lon="6.6844">
        <ele>999.55</ele>
        <time>2019-04-20T09:27:28Z</time>
      </trkpt>
      <trkpt lat="43.96268" lon="6.68436">
        <ele>996.936</ele>
        <time>2019-04-20T09:27:40Z</time>
      </trkpt>
      <trkpt lat="43.96267" lon="6.68425">
        <ele>996.911</ele>
        <time>2019-04-20T09:27:46Z</time>
      </trkpt>
      <trkpt lat="43.96267" lon="6.68416">
        <ele>995.938</ele>
        <time>2019-04-20T09:27:52Z</time>
      </trkpt>
      <trkpt lat="43.96269" lon="6.68407">
        <ele>996.137</ele>
        <time>2019-04-20T09:27:59Z</time>
      </trkpt>
      <trkpt lat="43.9627" lon="6.68404">
        <ele>997.754</ele>
        <time>2019-04-20T09:28:02Z</time>
      </trkpt>
      <trkpt lat="43.96278" lon="6.68393">
        <ele>999.451</ele>
        <time>2019-04-20T09:28:12Z</time>
      </trkpt>
      <trkpt lat="43.96285" lon="6.68384">
        <ele>998.932</ele>
        <time>2019-04-20T09:28:20Z</time>
      </trkpt>
      <trkpt lat="43.96292" lon="6.68379">
        <ele>999.719</ele>
        <time>2019-04-20T09:28:27Z</time>
      </trkpt>
      <trkpt lat="43.96295" lon="6.68373">
        <ele>1000.495</ele>
        <time>2019-04-20T09:28:35Z</time>
      </trkpt>
      <trkpt lat="43.96299" lon="6.68372">
        <ele>1001.302</ele>
        <time>2019-04-20T09:28:47Z</time>
      </trkpt>
      <trkpt lat="43.96302" lon="6.68373">
        <ele>1001.939</ele>
        <time>2019-04-20T09:28:52Z</time>
      </trkpt>
      <trkpt lat="43.96306" lon="6.68381">
        <ele>1002.365</ele>
        <time>2019-04-20T09:28:57Z</time>
      </trkpt>
      <trkpt lat="43.9631" lon="6.68389">
        <ele>1004.882</ele>
        <time>2019-04-20T09:29:04Z</time>
      </trkpt>
      <trkpt lat="43.96318" lon="6.68401">
        <ele>1007.092</ele>
        <time>2019-04-20T09:29:14Z</time>
      </trkpt>
      <trkpt lat="43.96321" lon="6.68411">
        <ele>1008.974</ele>
        <time>2019-04-20T09:29:21Z</time>
      </trkpt>
      <trkpt lat="43.96325" lon="6.68423">
        <ele>1011.801</ele>
        <time>2019-04-20T09:29:31Z</time>
      </trkpt>
      <trkpt lat="43.96334" lon="6.68437">
        <ele>1015.276</ele>
        <time>2019-04-20T09:29:44Z</time>
      </trkpt>
      <trkpt lat="43.96344" lon="6.68448">
        <ele>1017.018</ele>
        <time>2019-04-20T09:29:54Z</time>
      </trkpt>
      <trkpt lat="43.96357" lon="6.68459">
        <ele>1018.585</ele>
        <time>2019-04-20T09:30:06Z</time>
      </trkpt>
      <trkpt lat="43.96364" lon="6.68468">
        <ele>1020.926</ele>
        <time>2019-04-20T09:30:16Z</time>
      </trkpt>
      <trkpt lat="43.96366" lon="6.68472">
        <ele>1021.084</ele>
        <time>2019-04-20T09:30:27Z</time>
      </trkpt>
      <trkpt lat="43.96371" lon="6.68476">
        <ele>1022.776</ele>
        <time>2019-04-20T09:30:37Z</time>
      </trkpt>
      <trkpt lat="43.96375" lon="6.68479">
        <ele>1023.315</ele>
        <time>2019-04-20T09:30:45Z</time>
      </trkpt>
      <trkpt lat="43.96379" lon="6.68484">
        <ele>1022.644</ele>
        <time>2019-04-20T09:30:51Z</time>
      </trkpt>
      <trkpt lat="43.96386" lon="6.68486">
        <ele>1023.933</ele>
        <time>2019-04-20T09:30:57Z</time>
      </trkpt>
      <trkpt lat="43.9639" lon="6.6849">
        <ele>1023.725</ele>
        <time>2019-04-20T09:31:02Z</time>
      </trkpt>
      <trkpt lat="43.96394" lon="6.68495">
        <ele>1024.662</ele>
        <time>2019-04-20T09:31:06Z</time>
      </trkpt>
      <trkpt lat="43.96396" lon="6.68497">
        <ele>1025.229</ele>
        <time>2019-04-20T09:31:09Z</time>
      </trkpt>
      <trkpt lat="43.96406" lon="6.68499">
        <ele>1025.556</ele>
        <time>2019-04-20T09:31:15Z</time>
      </trkpt>
      <trkpt lat="43.96411" lon="6.685">
        <ele>1026.777</ele>
        <time>2019-04-20T09:31:20Z</time>
      </trkpt>
      <trkpt lat="43.96414" lon="6.685">
        <ele>1026.43</ele>
        <time>2019-04-20T09:31:22Z</time>
      </trkpt>
      <trkpt lat="43.9642" lon="6.685">
        <ele>1028.639</ele>
        <time>2019-04-20T09:31:30Z</time>
      </trkpt>
      <trkpt lat="43.96425" lon="6.68502">
        <ele>1030.024</ele>
        <time>2019-04-20T09:31:36Z</time>
      </trkpt>
      <trkpt lat="43.96425" lon="6.68508">
        <ele>1030.357</ele>
        <time>2019-04-20T09:31:41Z</time>
      </trkpt>
      <trkpt lat="43.96423" lon="6.68512">
        <ele>1031.257</ele>
        <time>2019-04-20T09:31:45Z</time>
      </trkpt>
      <trkpt lat="43.96419" lon="6.68522">
        <ele>1032.752</ele>
        <time>2019-04-20T09:31:52Z</time>
      </trkpt>
      <trkpt lat="43.96416" lon="6.68532">
        <ele>1034.33</ele>
        <time>2019-04-20T09:31:59Z</time>
      </trkpt>
      <trkpt lat="43.96415" lon="6.68542">
        <ele>1036.012</ele>
        <time>2019-04-20T09:32:08Z</time>
      </trkpt>
      <trkpt lat="43.96416" lon="6.68548">
        <ele>1037.023</ele>
        <time>2019-04-20T09:32:13Z</time>
      </trkpt>
      <trkpt lat="43.96413" lon="6.68556">
        <ele>1037.588</ele>
        <time>2019-04-20T09:32:19Z</time>
      </trkpt>
      <trkpt lat="43.96412" lon="6.68566">
        <ele>1039.608</ele>
        <time>2019-04-20T09:32:28Z</time>
      </trkpt>
      <trkpt lat="43.96416" lon="6.68573">
        <ele>1041.197</ele>
        <time>2019-04-20T09:32:35Z</time>
      </trkpt>
      <trkpt lat="43.96418" lon="6.68578">
        <ele>1043.657</ele>
        <time>2019-04-20T09:32:41Z</time>
      </trkpt>
      <trkpt lat="43.96426" lon="6.68591">
        <ele>1045.938</ele>
        <time>2019-04-20T09:32:55Z</time>
      </trkpt>
      <trkpt lat="43.96428" lon="6.68597">
        <ele>1048.138</ele>
        <time>2019-04-20T09:33:03Z</time>
      </trkpt>
      <trkpt lat="43.9643" lon="6.68595">
        <ele>1046.748</ele>
        <time>2019-04-20T09:33:54Z</time>
      </trkpt>
      <trkpt lat="43.96435" lon="6.68594">
        <ele>1047.042</ele>
        <time>2019-04-20T09:34:00Z</time>
      </trkpt>
      <trkpt lat="43.96432" lon="6.68594">
        <ele>1047.054</ele>
        <time>2019-04-20T09:34:11Z</time>
      </trkpt>
      <trkpt lat="43.96419" lon="6.68585">
        <ele>1044.204</ele>
        <time>2019-04-20T09:34:23Z</time>
      </trkpt>
      <trkpt lat="43.9641" lon="6.68573">
        <ele>1041.553</ele>
        <time>2019-04-20T09:34:33Z</time>
      </trkpt>
      <trkpt lat="43.96413" lon="6.68559">
        <ele>1039.104</ele>
        <time>2019-04-20T09:34:40Z</time>
      </trkpt>
      <trkpt lat="43.96416" lon="6.68548">
        <ele>1036.185</ele>
        <time>2019-04-20T09:34:47Z</time>
      </trkpt>
      <trkpt lat="43.96416" lon="6.68534">
        <ele>1033.245</ele>
        <time>2019-04-20T09:34:54Z</time>
      </trkpt>
      <trkpt lat="43.96423" lon="6.68517">
        <ele>1030.269</ele>
        <time>2019-04-20T09:35:05Z</time>
      </trkpt>
      <trkpt lat="43.96423" lon="6.68508">
        <ele>1029.071</ele>
        <time>2019-04-20T09:35:14Z</time>
      </trkpt>
      <trkpt lat="43.96419" lon="6.68508">
        <ele>1026.271</ele>
        <time>2019-04-20T09:35:24Z</time>
      </trkpt>
      <trkpt lat="43.96416" lon="6.68508">
        <ele>1025.86</ele>
        <time>2019-04-20T09:35:26Z</time>
      </trkpt>
      <trkpt lat="43.96413" lon="6.68509">
        <ele>1025.322</ele>
        <time>2019-04-20T09:35:28Z</time>
      </trkpt>
      <trkpt lat="43.96408" lon="6.68505">
        <ele>1024.725</ele>
        <time>2019-04-20T09:35:35Z</time>
      </trkpt>
      <trkpt lat="43.96398" lon="6.68499">
        <ele>1023.919</ele>
        <time>2019-04-20T09:35:41Z</time>
      </trkpt>
      <trkpt lat="43.96393" lon="6.68493">
        <ele>1022.697</ele>
        <time>2019-04-20T09:35:47Z</time>
      </trkpt>
      <trkpt lat="43.96383" lon="6.68489">
        <ele>1022.446</ele>
        <time>2019-04-20T09:35:55Z</time>
      </trkpt>
      <trkpt lat="43.96381" lon="6.68487">
        <ele>1022.541</ele>
        <time>2019-04-20T09:35:57Z</time>
      </trkpt>
      <trkpt lat="43.96377" lon="6.68484">
        <ele>1022.467</ele>
        <time>2019-04-20T09:36:04Z</time>
      </trkpt>
      <trkpt lat="43.96372" lon="6.68478">
        <ele>1022.142</ele>
        <time>2019-04-20T09:36:12Z</time>
      </trkpt>
      <trkpt lat="43.96368" lon="6.68474">
        <ele>1020.429</ele>
        <time>2019-04-20T09:36:15Z</time>
      </trkpt>
      <trkpt lat="43.96359" lon="6.68463">
        <ele>1017.099</ele>
        <time>2019-04-20T09:36:23Z</time>
      </trkpt>
      <trkpt lat="43.96349" lon="6.68452">
        <ele>1015.893</ele>
        <time>2019-04-20T09:36:31Z</time>
      </trkpt>
      <trkpt lat="43.96341" lon="6.68441">
        <ele>1014.246</ele>
        <time>2019-04-20T09:36:40Z</time>
      </trkpt>
      <trkpt lat="43.96337" lon="6.68438">
        <ele>1013.23</ele>
        <time>2019-04-20T09:36:43Z</time>
      </trkpt>
      <trkpt lat="43.96327" lon="6.68421">
        <ele>1009.632</ele>
        <time>2019-04-20T09:36:55Z</time>
      </trkpt>
      <trkpt lat="43.96326" lon="6.68414">
        <ele>1008.143</ele>
        <time>2019-04-20T09:36:59Z</time>
      </trkpt>
      <trkpt lat="43.96319" lon="6.68405">
        <ele>1005.882</ele>
        <time>2019-04-20T09:37:07Z</time>
      </trkpt>
      <trkpt lat="43.96315" lon="6.684">
        <ele>1004.336</ele>
        <time>2019-04-20T09:37:11Z</time>
      </trkpt>
      <trkpt lat="43.96312" lon="6.68394">
        <ele>1002.884</ele>
        <time>2019-04-20T09:37:17Z</time>
      </trkpt>
      <trkpt lat="43.96307" lon="6.68384">
        <ele>1001.438</ele>
        <time>2019-04-20T09:37:25Z</time>
      </trkpt>
      <trkpt lat="43.96305" lon="6.68379">
        <ele>1001.665</ele>
        <time>2019-04-20T09:37:30Z</time>
      </trkpt>
      <trkpt lat="43.96304" lon="6.68372">
        <ele>1003.336</ele>
        <time>2019-04-20T09:37:37Z</time>
      </trkpt>
      <trkpt lat="43.96311" lon="6.68359">
        <ele>1005.321</ele>
        <time>2019-04-20T09:37:46Z</time>
      </trkpt>
      <trkpt lat="43.96313" lon="6.68357">
        <ele>1005.634</ele>
        <time>2019-04-20T09:37:50Z</time>
      </trkpt>
      <trkpt lat="43.9632" lon="6.68349">
        <ele>1006.624</ele>
        <time>2019-04-20T09:37:58Z</time>
      </trkpt>
      <trkpt lat="43.96326" lon="6.68346">
        <ele>1008.062</ele>
        <time>2019-04-20T09:38:05Z</time>
      </trkpt>
      <trkpt lat="43.96331" lon="6.6834">
        <ele>1009.108</ele>
        <time>2019-04-20T09:38:11Z</time>
      </trkpt>
      <trkpt lat="43.96331" lon="6.68331">
        <ele>1010.359</ele>
        <time>2019-04-20T09:38:18Z</time>
      </trkpt>
      <trkpt lat="43.96336" lon="6.6832">
        <ele>1011.517</ele>
        <time>2019-04-20T09:38:26Z</time>
      </trkpt>
      <trkpt lat="43.96339" lon="6.68316">
        <ele>1012.511</ele>
        <time>2019-04-20T09:38:31Z</time>
      </trkpt>
      <trkpt lat="43.96345" lon="6.68299">
        <ele>1013.286</ele>
        <time>2019-04-20T09:38:44Z</time>
      </trkpt>
      <trkpt lat="43.96346" lon="6.68293">
        <ele>1014.488</ele>
        <time>2019-04-20T09:38:51Z</time>
      </trkpt>
      <trkpt lat="43.96349" lon="6.68284">
        <ele>1014.553</ele>
        <time>2019-04-20T09:38:58Z</time>
      </trkpt>
      <trkpt lat="43.9635" lon="6.68273">
        <ele>1015.406</ele>
        <time>2019-04-20T09:39:06Z</time>
      </trkpt>
      <trkpt lat="43.96352" lon="6.68269">
        <ele>1015.522</ele>
        <time>2019-04-20T09:39:08Z</time>
      </trkpt>
      <trkpt lat="43.96357" lon="6.68257">
        <ele>1016.287</ele>
        <time>2019-04-20T09:39:16Z</time>
      </trkpt>
      <trkpt lat="43.9636" lon="6.68244">
        <ele>1016.448</ele>
        <time>2019-04-20T09:39:23Z</time>
      </trkpt>
      <trkpt lat="43.96364" lon="6.68239">
        <ele>1016.26</ele>
        <time>2019-04-20T09:39:39Z</time>
      </trkpt>
      <trkpt lat="43.96364" lon="6.68229">
        <ele>1016.406</ele>
        <time>2019-04-20T09:39:45Z</time>
      </trkpt>
      <trkpt lat="43.96367" lon="6.6822">
        <ele>1017.961</ele>
        <time>2019-04-20T09:40:33Z</time>
      </trkpt>
      <trkpt lat="43.96367" lon="6.6821">
        <ele>1018.958</ele>
        <time>2019-04-20T09:40:53Z</time>
      </trkpt>
      <trkpt lat="43.9637" lon="6.68205">
        <ele>1019.835</ele>
        <time>2019-04-20T09:40:56Z</time>
      </trkpt>
      <trkpt lat="43.96373" lon="6.68196">
        <ele>1021.864</ele>
        <time>2019-04-20T09:41:05Z</time>
      </trkpt>
      <trkpt lat="43.96372" lon="6.68192">
        <ele>1023.157</ele>
        <time>2019-04-20T09:41:13Z</time>
      </trkpt>
      <trkpt lat="43.96377" lon="6.68183">
        <ele>1024.059</ele>
        <time>2019-04-20T09:41:36Z</time>
      </trkpt>
      <trkpt lat="43.96374" lon="6.68173">
        <ele>1027.211</ele>
        <time>2019-04-20T09:41:45Z</time>
      </trkpt>
      <trkpt lat="43.96374" lon="6.68163">
        <ele>1028.825</ele>
        <time>2019-04-20T09:41:57Z</time>
      </trkpt>
      <trkpt lat="43.96371" lon="6.68158">
        <ele>1031.702</ele>
        <time>2019-04-20T09:43:42Z</time>
      </trkpt>
      <trkpt lat="43.9637" lon="6.68155">
        <ele>1031.955</ele>
        <time>2019-04-20T09:44:33Z</time>
      </trkpt>
      <trkpt lat="43.96367" lon="6.68154">
        <ele>1032.64</ele>
        <time>2019-04-20T09:45:20Z</time>
      </trkpt>
      <trkpt lat="43.96366" lon="6.68156">
        <ele>1032.784</ele>
        <time>2019-04-20T09:45:52Z</time>
      </trkpt>
      <trkpt lat="43.96365" lon="6.68152">
        <ele>1032.478</ele>
        <time>2019-04-20T09:46:09Z</time>
      </trkpt>
      <trkpt lat="43.96361" lon="6.68152">
        <ele>1033.619</ele>
        <time>2019-04-20T09:48:10Z</time>
      </trkpt>
      <trkpt lat="43.96357" lon="6.68147">
        <ele>1032.789</ele>
        <time>2019-04-20T09:49:06Z</time>
      </trkpt>
      <trkpt lat="43.96351" lon="6.68143">
        <ele>1030.139</ele>
        <time>2019-04-20T09:49:43Z</time>
      </trkpt>
      <trkpt lat="43.9635" lon="6.68135">
        <ele>1025.174</ele>
        <time>2019-04-20T09:50:08Z</time>
      </trkpt>
      <trkpt lat="43.9635" lon="6.68126">
        <ele>1024.536</ele>
        <time>2019-04-20T09:50:15Z</time>
      </trkpt>
      <trkpt lat="43.96351" lon="6.68123">
        <ele>1023.093</ele>
        <time>2019-04-20T09:50:21Z</time>
      </trkpt>
      <trkpt lat="43.96352" lon="6.68116">
        <ele>1019.925</ele>
        <time>2019-04-20T09:50:35Z</time>
      </trkpt>
      <trkpt lat="43.96356" lon="6.6811">
        <ele>1018.648</ele>
        <time>2019-04-20T09:50:41Z</time>
      </trkpt>
      <trkpt lat="43.96358" lon="6.681">
        <ele>1017.033</ele>
        <time>2019-04-20T09:50:54Z</time>
      </trkpt>
      <trkpt lat="43.96361" lon="6.68096">
        <ele>1017.507</ele>
        <time>2019-04-20T09:50:59Z</time>
      </trkpt>
      <trkpt lat="43.96364" lon="6.68087">
        <ele>1017.858</ele>
        <time>2019-04-20T09:51:06Z</time>
      </trkpt>
      <trkpt lat="43.96368" lon="6.68085">
        <ele>1019.218</ele>
        <time>2019-04-20T09:51:15Z</time>
      </trkpt>
      <trkpt lat="43.96372" lon="6.68084">
        <ele>1019.165</ele>
        <time>2019-04-20T09:51:22Z</time>
      </trkpt>
      <trkpt lat="43.96378" lon="6.6808">
        <ele>1019.467</ele>
        <time>2019-04-20T09:51:30Z</time>
      </trkpt>
      <trkpt lat="43.96381" lon="6.6808">
        <ele>1018.955</ele>
        <time>2019-04-20T09:51:36Z</time>
      </trkpt>
      <trkpt lat="43.96385" lon="6.68077">
        <ele>1019.791</ele>
        <time>2019-04-20T09:51:43Z</time>
      </trkpt>
      <trkpt lat="43.96392" lon="6.68075">
        <ele>1018.931</ele>
        <time>2019-04-20T09:51:52Z</time>
      </trkpt>
      <trkpt lat="43.96397" lon="6.68076">
        <ele>1020.795</ele>
        <time>2019-04-20T09:52:01Z</time>
      </trkpt>
      <trkpt lat="43.96404" lon="6.68069">
        <ele>1022.182</ele>
        <time>2019-04-20T09:52:11Z</time>
      </trkpt>
      <trkpt lat="43.9641" lon="6.6806">
        <ele>1021.9</ele>
        <time>2019-04-20T09:52:21Z</time>
      </trkpt>
      <trkpt lat="43.96413" lon="6.68056">
        <ele>1020.689</ele>
        <time>2019-04-20T09:52:28Z</time>
      </trkpt>
      <trkpt lat="43.96421" lon="6.68053">
        <ele>1019.097</ele>
        <time>2019-04-20T09:52:38Z</time>
      </trkpt>
      <trkpt lat="43.96428" lon="6.68051">
        <ele>1019.312</ele>
        <time>2019-04-20T09:52:46Z</time>
      </trkpt>
      <trkpt lat="43.96441" lon="6.68051">
        <ele>1019.905</ele>
        <time>2019-04-20T09:52:56Z</time>
      </trkpt>
      <trkpt lat="43.96446" lon="6.68053">
        <ele>1020.062</ele>
        <time>2019-04-20T09:53:02Z</time>
      </trkpt>
      <trkpt lat="43.96455" lon="6.68036">
        <ele>1019.126</ele>
        <time>2019-04-20T09:53:11Z</time>
      </trkpt>
      <trkpt lat="43.96463" lon="6.68029">
        <ele>1018.305</ele>
        <time>2019-04-20T09:53:19Z</time>
      </trkpt>
      <trkpt lat="43.96468" lon="6.6803">
        <ele>1017.557</ele>
        <time>2019-04-20T09:53:23Z</time>
      </trkpt>
      <trkpt lat="43.96472" lon="6.6802">
        <ele>1018.204</ele>
        <time>2019-04-20T09:53:37Z</time>
      </trkpt>
      <trkpt lat="43.96479" lon="6.68018">
        <ele>1017.754</ele>
        <time>2019-04-20T09:53:43Z</time>
      </trkpt>
      <trkpt lat="43.96486" lon="6.68017">
        <ele>1018.664</ele>
        <time>2019-04-20T09:53:50Z</time>
      </trkpt>
      <trkpt lat="43.96491" lon="6.68013">
        <ele>1019.165</ele>
        <time>2019-04-20T09:53:55Z</time>
      </trkpt>
      <trkpt lat="43.96499" lon="6.68012">
        <ele>1018.106</ele>
        <time>2019-04-20T09:54:04Z</time>
      </trkpt>
      <trkpt lat="43.96504" lon="6.6801">
        <ele>1018.056</ele>
        <time>2019-04-20T09:54:09Z</time>
      </trkpt>
      <trkpt lat="43.96508" lon="6.68005">
        <ele>1018.255</ele>
        <time>2019-04-20T09:54:18Z</time>
      </trkpt>
      <trkpt lat="43.96514" lon="6.68001">
        <ele>1018.615</ele>
        <time>2019-04-20T09:54:24Z</time>
      </trkpt>
      <trkpt lat="43.96522" lon="6.67997">
        <ele>1018.628</ele>
        <time>2019-04-20T09:54:30Z</time>
      </trkpt>
      <trkpt lat="43.96529" lon="6.67994">
        <ele>1018.046</ele>
        <time>2019-04-20T09:54:34Z</time>
      </trkpt>
      <trkpt lat="43.96533" lon="6.67988">
        <ele>1017.687</ele>
        <time>2019-04-20T09:54:42Z</time>
      </trkpt>
      <trkpt lat="43.9654" lon="6.67984">
        <ele>1018.156</ele>
        <time>2019-04-20T09:54:51Z</time>
      </trkpt>
      <trkpt lat="43.96545" lon="6.67982">
        <ele>1018.554</ele>
        <time>2019-04-20T09:55:08Z</time>
      </trkpt>
      <trkpt lat="43.96555" lon="6.6798">
        <ele>1018.423</ele>
        <time>2019-04-20T09:55:17Z</time>
      </trkpt>
      <trkpt lat="43.96564" lon="6.67978">
        <ele>1019.251</ele>
        <time>2019-04-20T09:55:26Z</time>
      </trkpt>
      <trkpt lat="43.96577" lon="6.67978">
        <ele>1017.563</ele>
        <time>2019-04-20T09:55:39Z</time>
      </trkpt>
      <trkpt lat="43.96586" lon="6.67978">
        <ele>1016.014</ele>
        <time>2019-04-20T09:55:48Z</time>
      </trkpt>
      <trkpt lat="43.966" lon="6.67974">
        <ele>1015.564</ele>
        <time>2019-04-20T09:55:58Z</time>
      </trkpt>
      <trkpt lat="43.96607" lon="6.67967">
        <ele>1015.741</ele>
        <time>2019-04-20T09:56:05Z</time>
      </trkpt>
      <trkpt lat="43.9661" lon="6.6796">
        <ele>1014.598</ele>
        <time>2019-04-20T09:56:13Z</time>
      </trkpt>
      <trkpt lat="43.96616" lon="6.67954">
        <ele>1014.08</ele>
        <time>2019-04-20T09:56:20Z</time>
      </trkpt>
      <trkpt lat="43.9662" lon="6.67944">
        <ele>1013.423</ele>
        <time>2019-04-20T09:56:29Z</time>
      </trkpt>
      <trkpt lat="43.96627" lon="6.67934">
        <ele>1012.218</ele>
        <time>2019-04-20T09:56:37Z</time>
      </trkpt>
      <trkpt lat="43.96631" lon="6.67926">
        <ele>1010.408</ele>
        <time>2019-04-20T09:56:45Z</time>
      </trkpt>
      <trkpt lat="43.96636" lon="6.67917">
        <ele>1008.399</ele>
        <time>2019-04-20T09:56:54Z</time>
      </trkpt>
      <trkpt lat="43.96643" lon="6.67907">
        <ele>1006.432</ele>
        <time>2019-04-20T09:57:02Z</time>
      </trkpt>
      <trkpt lat="43.96647" lon="6.67897">
        <ele>1005.105</ele>
        <time>2019-04-20T09:57:10Z</time>
      </trkpt>
      <trkpt lat="43.96651" lon="6.67891">
        <ele>1003.862</ele>
        <time>2019-04-20T09:57:17Z</time>
      </trkpt>
      <trkpt lat="43.96655" lon="6.67885">
        <ele>1002.516</ele>
        <time>2019-04-20T09:57:23Z</time>
      </trkpt>
      <trkpt lat="43.96658" lon="6.6788">
        <ele>1001.524</ele>
        <time>2019-04-20T09:57:30Z</time>
      </trkpt>
      <trkpt lat="43.9666" lon="6.67873">
        <ele>1000.051</ele>
        <time>2019-04-20T09:57:40Z</time>
      </trkpt>
      <trkpt lat="43.96663" lon="6.67862">
        <ele>1000.192</ele>
        <time>2019-04-20T09:57:49Z</time>
      </trkpt>
      <trkpt lat="43.96665" lon="6.67857">
        <ele>998.514</ele>
        <time>2019-04-20T09:57:55Z</time>
      </trkpt>
      <trkpt lat="43.96669" lon="6.67852">
        <ele>997.003</ele>
        <time>2019-04-20T09:58:03Z</time>
      </trkpt>
      <trkpt lat="43.96669" lon="6.67846">
        <ele>996.138</ele>
        <time>2019-04-20T09:58:09Z</time>
      </trkpt>
      <trkpt lat="43.9667" lon="6.67839">
        <ele>994.721</ele>
        <time>2019-04-20T09:58:17Z</time>
      </trkpt>
      <trkpt lat="43.96667" lon="6.67829">
        <ele>993.092</ele>
        <time>2019-04-20T09:58:27Z</time>
      </trkpt>
      <trkpt lat="43.96668" lon="6.67817">
        <ele>990.933</ele>
        <time>2019-04-20T09:58:41Z</time>
      </trkpt>
      <trkpt lat="43.96668" lon="6.67806">
        <ele>989.422</ele>
        <time>2019-04-20T09:58:49Z</time>
      </trkpt>
      <trkpt lat="43.9667" lon="6.67798">
        <ele>987.568</ele>
        <time>2019-04-20T09:58:57Z</time>
      </trkpt>
      <trkpt lat="43.96667" lon="6.67785">
        <ele>985.604</ele>
        <time>2019-04-20T09:59:06Z</time>
      </trkpt>
      <trkpt lat="43.96662" lon="6.67783">
        <ele>984.17</ele>
        <time>2019-04-20T09:59:14Z</time>
      </trkpt>
      <trkpt lat="43.96656" lon="6.67786">
        <ele>980.909</ele>
        <time>2019-04-20T09:59:29Z</time>
      </trkpt>
      <trkpt lat="43.96648" lon="6.67789">
        <ele>979.145</ele>
        <time>2019-04-20T09:59:37Z</time>
      </trkpt>
      <trkpt lat="43.96645" lon="6.67783">
        <ele>977.437</ele>
        <time>2019-04-20T09:59:44Z</time>
      </trkpt>
      <trkpt lat="43.96648" lon="6.67776">
        <ele>977.054</ele>
        <time>2019-04-20T09:59:51Z</time>
      </trkpt>
      <trkpt lat="43.96649" lon="6.67771">
        <ele>976.709</ele>
        <time>2019-04-20T09:59:58Z</time>
      </trkpt>
      <trkpt lat="43.9665" lon="6.67765">
        <ele>976.556</ele>
        <time>2019-04-20T10:00:04Z</time>
      </trkpt>
      <trkpt lat="43.96651" lon="6.67758">
        <ele>975.411</ele>
        <time>2019-04-20T10:00:12Z</time>
      </trkpt>
      <trkpt lat="43.96654" lon="6.67756">
        <ele>974.675</ele>
        <time>2019-04-20T10:00:31Z</time>
      </trkpt>
      <trkpt lat="43.96659" lon="6.67748">
        <ele>972.915</ele>
        <time>2019-04-20T10:00:40Z</time>
      </trkpt>
      <trkpt lat="43.96666" lon="6.67739">
        <ele>972.557</ele>
        <time>2019-04-20T10:00:47Z</time>
      </trkpt>
      <trkpt lat="43.96672" lon="6.67731">
        <ele>971.145</ele>
        <time>2019-04-20T10:00:55Z</time>
      </trkpt>
      <trkpt lat="43.96676" lon="6.67721">
        <ele>969.967</ele>
        <time>2019-04-20T10:01:05Z</time>
      </trkpt>
      <trkpt lat="43.96684" lon="6.67713">
        <ele>968.926</ele>
        <time>2019-04-20T10:01:14Z</time>
      </trkpt>
      <trkpt lat="43.96687" lon="6.67712">
        <ele>967.553</ele>
        <time>2019-04-20T10:01:18Z</time>
      </trkpt>
      <trkpt lat="43.96689" lon="6.67705">
        <ele>966.984</ele>
        <time>2019-04-20T10:01:23Z</time>
      </trkpt>
      <trkpt lat="43.96695" lon="6.67701">
        <ele>965.373</ele>
        <time>2019-04-20T10:01:31Z</time>
      </trkpt>
      <trkpt lat="43.96704" lon="6.67696">
        <ele>964.698</ele>
        <time>2019-04-20T10:01:43Z</time>
      </trkpt>
      <trkpt lat="43.96706" lon="6.67694">
        <ele>963.421</ele>
        <time>2019-04-20T10:01:48Z</time>
      </trkpt>
      <trkpt lat="43.96712" lon="6.67685">
        <ele>962.178</ele>
        <time>2019-04-20T10:01:56Z</time>
      </trkpt>
      <trkpt lat="43.96714" lon="6.67682">
        <ele>962.084</ele>
        <time>2019-04-20T10:01:59Z</time>
      </trkpt>
      <trkpt lat="43.96719" lon="6.6768">
        <ele>961.137</ele>
        <time>2019-04-20T10:02:08Z</time>
      </trkpt>
      <trkpt lat="43.96725" lon="6.67676">
        <ele>959.693</ele>
        <time>2019-04-20T10:02:16Z</time>
      </trkpt>
      <trkpt lat="43.96729" lon="6.67667">
        <ele>957.715</ele>
        <time>2019-04-20T10:02:25Z</time>
      </trkpt>
      <trkpt lat="43.96732" lon="6.67667">
        <ele>957.717</ele>
        <time>2019-04-20T10:02:32Z</time>
      </trkpt>
      <trkpt lat="43.96735" lon="6.6766">
        <ele>956.596</ele>
        <time>2019-04-20T10:02:39Z</time>
      </trkpt>
      <trkpt lat="43.96742" lon="6.67654">
        <ele>955.848</ele>
        <time>2019-04-20T10:02:47Z</time>
      </trkpt>
      <trkpt lat="43.96747" lon="6.67654">
        <ele>954.402</ele>
        <time>2019-04-20T10:03:01Z</time>
      </trkpt>
      <trkpt lat="43.96752" lon="6.67647">
        <ele>953.391</ele>
        <time>2019-04-20T10:03:10Z</time>
      </trkpt>
      <trkpt lat="43.96756" lon="6.67642">
        <ele>952.757</ele>
        <time>2019-04-20T10:03:16Z</time>
      </trkpt>
      <trkpt lat="43.9676" lon="6.67634">
        <ele>952.499</ele>
        <time>2019-04-20T10:03:26Z</time>
      </trkpt>
      <trkpt lat="43.96762" lon="6.67627">
        <ele>951.854</ele>
        <time>2019-04-20T10:03:32Z</time>
      </trkpt>
      <trkpt lat="43.96768" lon="6.67623">
        <ele>950.15</ele>
        <time>2019-04-20T10:03:40Z</time>
      </trkpt>
      <trkpt lat="43.96773" lon="6.67617">
        <ele>948.296</ele>
        <time>2019-04-20T10:03:49Z</time>
      </trkpt>
      <trkpt lat="43.96782" lon="6.67617">
        <ele>946.191</ele>
        <time>2019-04-20T10:03:59Z</time>
      </trkpt>
      <trkpt lat="43.96787" lon="6.67616">
        <ele>945.313</ele>
        <time>2019-04-20T10:04:06Z</time>
      </trkpt>
      <trkpt lat="43.96791" lon="6.67613">
        <ele>944.276</ele>
        <time>2019-04-20T10:04:14Z</time>
      </trkpt>
      <trkpt lat="43.96795" lon="6.67613">
        <ele>943.127</ele>
        <time>2019-04-20T10:04:19Z</time>
      </trkpt>
      <trkpt lat="43.96794" lon="6.67609">
        <ele>939.926</ele>
        <time>2019-04-20T10:04:32Z</time>
      </trkpt>
      <trkpt lat="43.96794" lon="6.67603">
        <ele>938.145</ele>
        <time>2019-04-20T10:04:39Z</time>
      </trkpt>
      <trkpt lat="43.96792" lon="6.67595">
        <ele>935.932</ele>
        <time>2019-04-20T10:04:46Z</time>
      </trkpt>
      <trkpt lat="43.96795" lon="6.67587">
        <ele>934.4</ele>
        <time>2019-04-20T10:04:53Z</time>
      </trkpt>
      <trkpt lat="43.96793" lon="6.67582">
        <ele>933.955</ele>
        <time>2019-04-20T10:04:57Z</time>
      </trkpt>
      <trkpt lat="43.96789" lon="6.67579">
        <ele>932.053</ele>
        <time>2019-04-20T10:05:04Z</time>
      </trkpt>
      <trkpt lat="43.96787" lon="6.67574">
        <ele>929.953</ele>
        <time>2019-04-20T10:05:13Z</time>
      </trkpt>
      <trkpt lat="43.96791" lon="6.67572">
        <ele>928.435</ele>
        <time>2019-04-20T10:05:20Z</time>
      </trkpt>
      <trkpt lat="43.96795" lon="6.67567">
        <ele>926.205</ele>
        <time>2019-04-20T10:05:29Z</time>
      </trkpt>
      <trkpt lat="43.96795" lon="6.67558">
        <ele>924.798</ele>
        <time>2019-04-20T10:05:37Z</time>
      </trkpt>
      <trkpt lat="43.96802" lon="6.67558">
        <ele>922.281</ele>
        <time>2019-04-20T10:05:49Z</time>
      </trkpt>
      <trkpt lat="43.96805" lon="6.67558">
        <ele>920.541</ele>
        <time>2019-04-20T10:05:57Z</time>
      </trkpt>
      <trkpt lat="43.96811" lon="6.67558">
        <ele>917.703</ele>
        <time>2019-04-20T10:06:08Z</time>
      </trkpt>
      <trkpt lat="43.96817" lon="6.67559">
        <ele>916.794</ele>
        <time>2019-04-20T10:06:15Z</time>
      </trkpt>
      <trkpt lat="43.96823" lon="6.67556">
        <ele>916.407</ele>
        <time>2019-04-20T10:06:36Z</time>
      </trkpt>
      <trkpt lat="43.96819" lon="6.67551">
        <ele>915.736</ele>
        <time>2019-04-20T10:07:15Z</time>
      </trkpt>
      <trkpt lat="43.96813" lon="6.67545">
        <ele>914.463</ele>
        <time>2019-04-20T10:07:21Z</time>
      </trkpt>
      <trkpt lat="43.9681" lon="6.6754">
        <ele>914.421</ele>
        <time>2019-04-20T10:07:27Z</time>
      </trkpt>
      <trkpt lat="43.96801" lon="6.67534">
        <ele>913.203</ele>
        <time>2019-04-20T10:07:35Z</time>
      </trkpt>
      <trkpt lat="43.96798" lon="6.67531">
        <ele>912.621</ele>
        <time>2019-04-20T10:07:38Z</time>
      </trkpt>
      <trkpt lat="43.96792" lon="6.67525">
        <ele>912.093</ele>
        <time>2019-04-20T10:07:44Z</time>
      </trkpt>
      <trkpt lat="43.96784" lon="6.67528">
        <ele>912.451</ele>
        <time>2019-04-20T10:07:52Z</time>
      </trkpt>
      <trkpt lat="43.96777" lon="6.67533">
        <ele>913.504</ele>
        <time>2019-04-20T10:07:58Z</time>
      </trkpt>
      <trkpt lat="43.96771" lon="6.67532">
        <ele>912.755</ele>
        <time>2019-04-20T10:08:05Z</time>
      </trkpt>
      <trkpt lat="43.9676" lon="6.67526">
        <ele>913.57</ele>
        <time>2019-04-20T10:08:16Z</time>
      </trkpt>
      <trkpt lat="43.96756" lon="6.67526">
        <ele>913.62</ele>
        <time>2019-04-20T10:08:20Z</time>
      </trkpt>
      <trkpt lat="43.96752" lon="6.67526">
        <ele>914.95</ele>
        <time>2019-04-20T10:08:24Z</time>
      </trkpt>
      <trkpt lat="43.96745" lon="6.67526">
        <ele>914.239</ele>
        <time>2019-04-20T10:08:33Z</time>
      </trkpt>
      <trkpt lat="43.96743" lon="6.67531">
        <ele>914.243</ele>
        <time>2019-04-20T10:09:00Z</time>
      </trkpt>
      <trkpt lat="43.96749" lon="6.67533">
        <ele>914.067</ele>
        <time>2019-04-20T10:09:08Z</time>
      </trkpt>
      <trkpt lat="43.96749" lon="6.67537">
        <ele>913.795</ele>
        <time>2019-04-20T10:09:21Z</time>
      </trkpt>
      <trkpt lat="43.96745" lon="6.67542">
        <ele>913.382</ele>
        <time>2019-04-20T10:10:11Z</time>
      </trkpt>
      <trkpt lat="43.96746" lon="6.67532">
        <ele>912.67</ele>
        <time>2019-04-20T10:10:16Z</time>
      </trkpt>
      <trkpt lat="43.96756" lon="6.67525">
        <ele>910.885</ele>
        <time>2019-04-20T10:14:40Z</time>
      </trkpt>
      <trkpt lat="43.96762" lon="6.67527">
        <ele>910.38</ele>
        <time>2019-04-20T10:14:45Z</time>
      </trkpt>
      <trkpt lat="43.96767" lon="6.67533">
        <ele>910.02</ele>
        <time>2019-04-20T10:14:50Z</time>
      </trkpt>
      <trkpt lat="43.96772" lon="6.67533">
        <ele>910.38</ele>
        <time>2019-04-20T10:14:55Z</time>
      </trkpt>
      <trkpt lat="43.9678" lon="6.67532">
        <ele>909.935</ele>
        <time>2019-04-20T10:15:01Z</time>
      </trkpt>
      <trkpt lat="43.96786" lon="6.67528">
        <ele>909.314</ele>
        <time>2019-04-20T10:15:08Z</time>
      </trkpt>
      <trkpt lat="43.96792" lon="6.67528">
        <ele>910.011</ele>
        <time>2019-04-20T10:15:12Z</time>
      </trkpt>
      <trkpt lat="43.96799" lon="6.67531">
        <ele>908.91</ele>
        <time>2019-04-20T10:15:19Z</time>
      </trkpt>
      <trkpt lat="43.96805" lon="6.67534">
        <ele>910.601</ele>
        <time>2019-04-20T10:15:26Z</time>
      </trkpt>
      <trkpt lat="43.96809" lon="6.67541">
        <ele>911.875</ele>
        <time>2019-04-20T10:15:34Z</time>
      </trkpt>
      <trkpt lat="43.96812" lon="6.67548">
        <ele>912.512</ele>
        <time>2019-04-20T10:15:40Z</time>
      </trkpt>
      <trkpt lat="43.96817" lon="6.67555">
        <ele>913.514</ele>
        <time>2019-04-20T10:15:48Z</time>
      </trkpt>
      <trkpt lat="43.96821" lon="6.67558">
        <ele>913.225</ele>
        <time>2019-04-20T10:15:57Z</time>
      </trkpt>
      <trkpt lat="43.96824" lon="6.6757">
        <ele>912.712</ele>
        <time>2019-04-20T10:16:08Z</time>
      </trkpt>
      <trkpt lat="43.96828" lon="6.67572">
        <ele>911.09</ele>
        <time>2019-04-20T10:16:18Z</time>
      </trkpt>
      <trkpt lat="43.96837" lon="6.67573">
        <ele>907.395</ele>
        <time>2019-04-20T10:16:29Z</time>
      </trkpt>
      <trkpt lat="43.96842" lon="6.67571">
        <ele>907.057</ele>
        <time>2019-04-20T10:16:38Z</time>
      </trkpt>
      <trkpt lat="43.96854" lon="6.67573">
        <ele>905.85</ele>
        <time>2019-04-20T10:16:48Z</time>
      </trkpt>
      <trkpt lat="43.96858" lon="6.67576">
        <ele>905.779</ele>
        <time>2019-04-20T10:16:56Z</time>
      </trkpt>
      <trkpt lat="43.96863" lon="6.67582">
        <ele>902.167</ele>
        <time>2019-04-20T10:17:06Z</time>
      </trkpt>
      <trkpt lat="43.96868" lon="6.67579">
        <ele>901.488</ele>
        <time>2019-04-20T10:17:13Z</time>
      </trkpt>
      <trkpt lat="43.96871" lon="6.67582">
        <ele>902.207</ele>
        <time>2019-04-20T10:17:19Z</time>
      </trkpt>
      <trkpt lat="43.96879" lon="6.67574">
        <ele>901.643</ele>
        <time>2019-04-20T10:17:45Z</time>
      </trkpt>
      <trkpt lat="43.96882" lon="6.67571">
        <ele>901.44</ele>
        <time>2019-04-20T10:17:52Z</time>
      </trkpt>
      <trkpt lat="43.96893" lon="6.6757">
        <ele>902.081</ele>
        <time>2019-04-20T10:18:01Z</time>
      </trkpt>
      <trkpt lat="43.969" lon="6.6756">
        <ele>900.891</ele>
        <time>2019-04-20T10:18:12Z</time>
      </trkpt>
      <trkpt lat="43.96905" lon="6.67557">
        <ele>899.616</ele>
        <time>2019-04-20T10:18:19Z</time>
      </trkpt>
      <trkpt lat="43.96911" lon="6.67556">
        <ele>897.675</ele>
        <time>2019-04-20T10:18:29Z</time>
      </trkpt>
      <trkpt lat="43.96914" lon="6.67553">
        <ele>896.146</ele>
        <time>2019-04-20T10:18:36Z</time>
      </trkpt>
      <trkpt lat="43.96918" lon="6.67549">
        <ele>894.471</ele>
        <time>2019-04-20T10:18:43Z</time>
      </trkpt>
      <trkpt lat="43.96921" lon="6.67547">
        <ele>893.919</ele>
        <time>2019-04-20T10:18:52Z</time>
      </trkpt>
      <trkpt lat="43.96924" lon="6.67545">
        <ele>893.504</ele>
        <time>2019-04-20T10:18:56Z</time>
      </trkpt>
      <trkpt lat="43.96931" lon="6.6754">
        <ele>891.947</ele>
        <time>2019-04-20T10:19:02Z</time>
      </trkpt>
      <trkpt lat="43.96936" lon="6.67534">
        <ele>891.628</ele>
        <time>2019-04-20T10:19:10Z</time>
      </trkpt>
      <trkpt lat="43.96941" lon="6.67532">
        <ele>890.331</ele>
        <time>2019-04-20T10:19:15Z</time>
      </trkpt>
      <trkpt lat="43.96947" lon="6.67528">
        <ele>888.916</ele>
        <time>2019-04-20T10:19:30Z</time>
      </trkpt>
      <trkpt lat="43.9695" lon="6.67525">
        <ele>885.684</ele>
        <time>2019-04-20T10:19:40Z</time>
      </trkpt>
      <trkpt lat="43.96951" lon="6.6752">
        <ele>884.258</ele>
        <time>2019-04-20T10:19:47Z</time>
      </trkpt>
      <trkpt lat="43.96953" lon="6.67517">
        <ele>881.982</ele>
        <time>2019-04-20T10:20:00Z</time>
      </trkpt>
      <trkpt lat="43.9695" lon="6.67518">
        <ele>879.565</ele>
        <time>2019-04-20T10:20:43Z</time>
      </trkpt>
      <trkpt lat="43.96946" lon="6.67514">
        <ele>878.375</ele>
        <time>2019-04-20T10:20:51Z</time>
      </trkpt>
      <trkpt lat="43.96941" lon="6.67511">
        <ele>877.164</ele>
        <time>2019-04-20T10:20:59Z</time>
      </trkpt>
      <trkpt lat="43.96937" lon="6.67511">
        <ele>875.556</ele>
        <time>2019-04-20T10:21:32Z</time>
      </trkpt>
      <trkpt lat="43.96941" lon="6.6751">
        <ele>873.771</ele>
        <time>2019-04-20T10:22:18Z</time>
      </trkpt>
      <trkpt lat="43.96943" lon="6.67508">
        <ele>872.967</ele>
        <time>2019-04-20T10:22:24Z</time>
      </trkpt>
      <trkpt lat="43.96945" lon="6.67502">
        <ele>871.431</ele>
        <time>2019-04-20T10:22:32Z</time>
      </trkpt>
      <trkpt lat="43.96949" lon="6.67497">
        <ele>869.387</ele>
        <time>2019-04-20T10:22:39Z</time>
      </trkpt>
      <trkpt lat="43.96947" lon="6.67492">
        <ele>867.165</ele>
        <time>2019-04-20T10:23:09Z</time>
      </trkpt>
      <trkpt lat="43.96943" lon="6.67491">
        <ele>866.361</ele>
        <time>2019-04-20T10:23:15Z</time>
      </trkpt>
      <trkpt lat="43.9694" lon="6.67489">
        <ele>864.757</ele>
        <time>2019-04-20T10:23:20Z</time>
      </trkpt>
      <trkpt lat="43.96932" lon="6.67486">
        <ele>862.968</ele>
        <time>2019-04-20T10:23:40Z</time>
      </trkpt>
      <trkpt lat="43.96935" lon="6.67479">
        <ele>862.374</ele>
        <time>2019-04-20T10:24:03Z</time>
      </trkpt>
      <trkpt lat="43.96937" lon="6.67474">
        <ele>861.006</ele>
        <time>2019-04-20T10:24:18Z</time>
      </trkpt>
      <trkpt lat="43.96934" lon="6.67472">
        <ele>858.661</ele>
        <time>2019-04-20T10:24:31Z</time>
      </trkpt>
      <trkpt lat="43.96929" lon="6.67469">
        <ele>857.586</ele>
        <time>2019-04-20T10:24:47Z</time>
      </trkpt>
      <trkpt lat="43.96926" lon="6.67467">
        <ele>857.304</ele>
        <time>2019-04-20T10:24:53Z</time>
      </trkpt>
      <trkpt lat="43.9692" lon="6.67462">
        <ele>857.107</ele>
        <time>2019-04-20T10:25:02Z</time>
      </trkpt>
      <trkpt lat="43.96913" lon="6.67465">
        <ele>856.07</ele>
        <time>2019-04-20T10:25:08Z</time>
      </trkpt>
      <trkpt lat="43.96904" lon="6.67471">
        <ele>855.336</ele>
        <time>2019-04-20T10:25:18Z</time>
      </trkpt>
      <trkpt lat="43.96899" lon="6.67467">
        <ele>852.616</ele>
        <time>2019-04-20T10:25:30Z</time>
      </trkpt>
      <trkpt lat="43.96894" lon="6.67467">
        <ele>851.633</ele>
        <time>2019-04-20T10:25:45Z</time>
      </trkpt>
      <trkpt lat="43.96891" lon="6.67468">
        <ele>848.927</ele>
        <time>2019-04-20T10:26:11Z</time>
      </trkpt>
      <trkpt lat="43.96885" lon="6.67469">
        <ele>846.553</ele>
        <time>2019-04-20T10:26:29Z</time>
      </trkpt>
      <trkpt lat="43.96882" lon="6.67468">
        <ele>845.971</ele>
        <time>2019-04-20T10:26:37Z</time>
      </trkpt>
      <trkpt lat="43.9688" lon="6.67463">
        <ele>843.686</ele>
        <time>2019-04-20T10:26:55Z</time>
      </trkpt>
      <trkpt lat="43.96882" lon="6.67458">
        <ele>841.439</ele>
        <time>2019-04-20T10:27:04Z</time>
      </trkpt>
      <trkpt lat="43.96881" lon="6.67451">
        <ele>840.885</ele>
        <time>2019-04-20T10:27:11Z</time>
      </trkpt>
      <trkpt lat="43.96878" lon="6.67451">
        <ele>840.111</ele>
        <time>2019-04-20T10:27:22Z</time>
      </trkpt>
      <trkpt lat="43.96873" lon="6.6745">
        <ele>839.772</ele>
        <time>2019-04-20T10:27:33Z</time>
      </trkpt>
      <trkpt lat="43.96869" lon="6.67448">
        <ele>838.775</ele>
        <time>2019-04-20T10:27:51Z</time>
      </trkpt>
      <trkpt lat="43.96865" lon="6.6745">
        <ele>838.627</ele>
        <time>2019-04-20T10:28:00Z</time>
      </trkpt>
      <trkpt lat="43.96867" lon="6.67446">
        <ele>839.181</ele>
        <time>2019-04-20T10:28:13Z</time>
      </trkpt>
      <trkpt lat="43.96875" lon="6.67442">
        <ele>838.558</ele>
        <time>2019-04-20T10:28:38Z</time>
      </trkpt>
      <trkpt lat="43.96878" lon="6.67446">
        <ele>838.949</ele>
        <time>2019-04-20T10:28:44Z</time>
      </trkpt>
      <trkpt lat="43.96886" lon="6.67444">
        <ele>837.45</ele>
        <time>2019-04-20T10:29:00Z</time>
      </trkpt>
      <trkpt lat="43.9689" lon="6.6744">
        <ele>836.052</ele>
        <time>2019-04-20T10:29:08Z</time>
      </trkpt>
      <trkpt lat="43.96893" lon="6.67432">
        <ele>832.856</ele>
        <time>2019-04-20T10:29:17Z</time>
      </trkpt>
      <trkpt lat="43.96898" lon="6.67424">
        <ele>830.627</ele>
        <time>2019-04-20T10:29:27Z</time>
      </trkpt>
      <trkpt lat="43.96901" lon="6.6742">
        <ele>829.327</ele>
        <time>2019-04-20T10:29:33Z</time>
      </trkpt>
      <trkpt lat="43.96903" lon="6.67416">
        <ele>827.855</ele>
        <time>2019-04-20T10:29:41Z</time>
      </trkpt>
      <trkpt lat="43.96907" lon="6.67411">
        <ele>826.708</ele>
        <time>2019-04-20T10:29:53Z</time>
      </trkpt>
      <trkpt lat="43.96913" lon="6.67406">
        <ele>826.296</ele>
        <time>2019-04-20T10:30:03Z</time>
      </trkpt>
      <trkpt lat="43.96919" lon="6.67399">
        <ele>826.082</ele>
        <time>2019-04-20T10:30:10Z</time>
      </trkpt>
      <trkpt lat="43.96922" lon="6.67395">
        <ele>826.151</ele>
        <time>2019-04-20T10:30:17Z</time>
      </trkpt>
      <trkpt lat="43.96933" lon="6.67385">
        <ele>825.509</ele>
        <time>2019-04-20T10:30:27Z</time>
      </trkpt>
      <trkpt lat="43.96939" lon="6.67372">
        <ele>823.908</ele>
        <time>2019-04-20T10:30:36Z</time>
      </trkpt>
      <trkpt lat="43.96943" lon="6.67363">
        <ele>823.576</ele>
        <time>2019-04-20T10:30:42Z</time>
      </trkpt>
      <trkpt lat="43.96954" lon="6.67359">
        <ele>823.673</ele>
        <time>2019-04-20T10:30:49Z</time>
      </trkpt>
      <trkpt lat="43.96956" lon="6.67354">
        <ele>822.339</ele>
        <time>2019-04-20T10:30:52Z</time>
      </trkpt>
      <trkpt lat="43.96957" lon="6.6735">
        <ele>821.145</ele>
        <time>2019-04-20T10:30:56Z</time>
      </trkpt>
      <trkpt lat="43.96957" lon="6.67342">
        <ele>819.785</ele>
        <time>2019-04-20T10:31:03Z</time>
      </trkpt>
      <trkpt lat="43.96957" lon="6.67336">
        <ele>818.797</ele>
        <time>2019-04-20T10:31:08Z</time>
      </trkpt>
      <trkpt lat="43.96958" lon="6.67328">
        <ele>817.84</ele>
        <time>2019-04-20T10:31:13Z</time>
      </trkpt>
      <trkpt lat="43.96961" lon="6.67321">
        <ele>817.27</ele>
        <time>2019-04-20T10:31:19Z</time>
      </trkpt>
      <trkpt lat="43.96963" lon="6.67315">
        <ele>816.342</ele>
        <time>2019-04-20T10:31:27Z</time>
      </trkpt>
      <trkpt lat="43.96966" lon="6.67307">
        <ele>814.804</ele>
        <time>2019-04-20T10:31:33Z</time>
      </trkpt>
      <trkpt lat="43.96973" lon="6.67293">
        <ele>812.436</ele>
        <time>2019-04-20T10:31:46Z</time>
      </trkpt>
      <trkpt lat="43.96977" lon="6.67286">
        <ele>811.142</ele>
        <time>2019-04-20T10:31:52Z</time>
      </trkpt>
      <trkpt lat="43.96986" lon="6.67284">
        <ele>810.544</ele>
        <time>2019-04-20T10:32:00Z</time>
      </trkpt>
      <trkpt lat="43.9699" lon="6.67286">
        <ele>810.916</ele>
        <time>2019-04-20T10:32:08Z</time>
      </trkpt>
      <trkpt lat="43.96992" lon="6.67283">
        <ele>811.099</ele>
        <time>2019-04-20T10:32:28Z</time>
      </trkpt>
      <trkpt lat="43.96996" lon="6.67279">
        <ele>809.853</ele>
        <time>2019-04-20T10:32:37Z</time>
      </trkpt>
      <trkpt lat="43.96993" lon="6.67275">
        <ele>807.207</ele>
        <time>2019-04-20T10:32:54Z</time>
      </trkpt>
      <trkpt lat="43.96989" lon="6.67271">
        <ele>805.809</ele>
        <time>2019-04-20T10:33:03Z</time>
      </trkpt>
      <trkpt lat="43.96982" lon="6.67268">
        <ele>804.512</ele>
        <time>2019-04-20T10:33:11Z</time>
      </trkpt>
      <trkpt lat="43.96987" lon="6.67264">
        <ele>803.388</ele>
        <time>2019-04-20T10:33:21Z</time>
      </trkpt>
      <trkpt lat="43.96992" lon="6.67261">
        <ele>803.296</ele>
        <time>2019-04-20T10:33:28Z</time>
      </trkpt>
      <trkpt lat="43.96999" lon="6.67253">
        <ele>801.185</ele>
        <time>2019-04-20T10:33:36Z</time>
      </trkpt>
      <trkpt lat="43.97003" lon="6.67253">
        <ele>799.971</ele>
        <time>2019-04-20T10:33:42Z</time>
      </trkpt>
      <trkpt lat="43.97008" lon="6.67249">
        <ele>799.118</ele>
        <time>2019-04-20T10:33:57Z</time>
      </trkpt>
      <trkpt lat="43.97005" lon="6.67246">
        <ele>797.037</ele>
        <time>2019-04-20T10:34:03Z</time>
      </trkpt>
      <trkpt lat="43.97" lon="6.67234">
        <ele>794.386</ele>
        <time>2019-04-20T10:34:12Z</time>
      </trkpt>
      <trkpt lat="43.97" lon="6.67228">
        <ele>789.619</ele>
        <time>2019-04-20T10:34:26Z</time>
      </trkpt>
      <trkpt lat="43.97" lon="6.6722">
        <ele>785.845</ele>
        <time>2019-04-20T10:34:42Z</time>
      </trkpt>
      <trkpt lat="43.96998" lon="6.67215">
        <ele>784.418</ele>
        <time>2019-04-20T10:34:49Z</time>
      </trkpt>
      <trkpt lat="43.96999" lon="6.67211">
        <ele>782.571</ele>
        <time>2019-04-20T10:34:54Z</time>
      </trkpt>
      <trkpt lat="43.96993" lon="6.67203">
        <ele>781.938</ele>
        <time>2019-04-20T10:35:02Z</time>
      </trkpt>
      <trkpt lat="43.96992" lon="6.67199">
        <ele>781.124</ele>
        <time>2019-04-20T10:35:09Z</time>
      </trkpt>
      <trkpt lat="43.9699" lon="6.67196">
        <ele>779.528</ele>
        <time>2019-04-20T10:35:17Z</time>
      </trkpt>
      <trkpt lat="43.96985" lon="6.67188">
        <ele>778.916</ele>
        <time>2019-04-20T10:36:05Z</time>
      </trkpt>
      <trkpt lat="43.96978" lon="6.6719">
        <ele>776.337</ele>
        <time>2019-04-20T10:36:33Z</time>
      </trkpt>
      <trkpt lat="43.96975" lon="6.67188">
        <ele>774.721</ele>
        <time>2019-04-20T10:36:41Z</time>
      </trkpt>
      <trkpt lat="43.9697" lon="6.67192">
        <ele>774.109</ele>
        <time>2019-04-20T10:37:11Z</time>
      </trkpt>
      <trkpt lat="43.96968" lon="6.67192">
        <ele>773.55</ele>
        <time>2019-04-20T10:37:25Z</time>
      </trkpt>
      <trkpt lat="43.96959" lon="6.67197">
        <ele>772.973</ele>
        <time>2019-04-20T10:37:34Z</time>
      </trkpt>
      <trkpt lat="43.96956" lon="6.6719">
        <ele>772.908</ele>
        <time>2019-04-20T10:37:40Z</time>
      </trkpt>
      <trkpt lat="43.96948" lon="6.67181">
        <ele>770.811</ele>
        <time>2019-04-20T10:37:52Z</time>
      </trkpt>
      <trkpt lat="43.96944" lon="6.67176">
        <ele>769.321</ele>
        <time>2019-04-20T10:38:01Z</time>
      </trkpt>
      <trkpt lat="43.96938" lon="6.67165">
        <ele>768.588</ele>
        <time>2019-04-20T10:38:09Z</time>
      </trkpt>
      <trkpt lat="43.96922" lon="6.67166">
        <ele>767.288</ele>
        <time>2019-04-20T10:38:16Z</time>
      </trkpt>
      <trkpt lat="43.96917" lon="6.67159">
        <ele>766.367</ele>
        <time>2019-04-20T10:38:24Z</time>
      </trkpt>
      <trkpt lat="43.96913" lon="6.67157">
        <ele>765.477</ele>
        <time>2019-04-20T10:38:30Z</time>
      </trkpt>
      <trkpt lat="43.96912" lon="6.67153">
        <ele>764.604</ele>
        <time>2019-04-20T10:38:36Z</time>
      </trkpt>
      <trkpt lat="43.96912" lon="6.67144">
        <ele>764.444</ele>
        <time>2019-04-20T10:38:43Z</time>
      </trkpt>
      <trkpt lat="43.9691" lon="6.67141">
        <ele>764.725</ele>
        <time>2019-04-20T10:38:46Z</time>
      </trkpt>
      <trkpt lat="43.96895" lon="6.67139">
        <ele>761.196</ele>
        <time>2019-04-20T10:39:10Z</time>
      </trkpt>
      <trkpt lat="43.9689" lon="6.67141">
        <ele>760.409</ele>
        <time>2019-04-20T10:39:28Z</time>
      </trkpt>
      <trkpt lat="43.96885" lon="6.67149">
        <ele>757.07</ele>
        <time>2019-04-20T10:39:42Z</time>
      </trkpt>
      <trkpt lat="43.96879" lon="6.67154">
        <ele>755.477</ele>
        <time>2019-04-20T10:39:51Z</time>
      </trkpt>
      <trkpt lat="43.96875" lon="6.67164">
        <ele>755.42</ele>
        <time>2019-04-20T10:40:25Z</time>
      </trkpt>
      <trkpt lat="43.9687" lon="6.67166">
        <ele>753.475</ele>
        <time>2019-04-20T10:40:32Z</time>
      </trkpt>
      <trkpt lat="43.96869" lon="6.67156">
        <ele>750.572</ele>
        <time>2019-04-20T10:40:46Z</time>
      </trkpt>
      <trkpt lat="43.96868" lon="6.6715">
        <ele>749.133</ele>
        <time>2019-04-20T10:40:53Z</time>
      </trkpt>
      <trkpt lat="43.96863" lon="6.67143">
        <ele>747.306</ele>
        <time>2019-04-20T10:41:00Z</time>
      </trkpt>
      <trkpt lat="43.96859" lon="6.6714">
        <ele>744.833</ele>
        <time>2019-04-20T10:41:10Z</time>
      </trkpt>
      <trkpt lat="43.96855" lon="6.67145">
        <ele>744.378</ele>
        <time>2019-04-20T10:41:36Z</time>
      </trkpt>
      <trkpt lat="43.96852" lon="6.67149">
        <ele>743.718</ele>
        <time>2019-04-20T10:41:46Z</time>
      </trkpt>
      <trkpt lat="43.96848" lon="6.6715">
        <ele>743.148</ele>
        <time>2019-04-20T10:42:12Z</time>
      </trkpt>
      <trkpt lat="43.96842" lon="6.67155">
        <ele>741.825</ele>
        <time>2019-04-20T10:42:22Z</time>
      </trkpt>
      <trkpt lat="43.96836" lon="6.67159">
        <ele>739.958</ele>
        <time>2019-04-20T10:42:40Z</time>
      </trkpt>
      <trkpt lat="43.96833" lon="6.6716">
        <ele>739.553</ele>
        <time>2019-04-20T10:42:49Z</time>
      </trkpt>
      <trkpt lat="43.96832" lon="6.67153">
        <ele>738.582</ele>
        <time>2019-04-20T10:42:55Z</time>
      </trkpt>
      <trkpt lat="43.96831" lon="6.67146">
        <ele>736.881</ele>
        <time>2019-04-20T10:43:02Z</time>
      </trkpt>
      <trkpt lat="43.96831" lon="6.67137">
        <ele>735.434</ele>
        <time>2019-04-20T10:43:10Z</time>
      </trkpt>
      <trkpt lat="43.96828" lon="6.67134">
        <ele>735.176</ele>
        <time>2019-04-20T10:43:15Z</time>
      </trkpt>
      <trkpt lat="43.96822" lon="6.67127">
        <ele>734.227</ele>
        <time>2019-04-20T10:43:22Z</time>
      </trkpt>
      <trkpt lat="43.96816" lon="6.67125">
        <ele>733.272</ele>
        <time>2019-04-20T10:43:29Z</time>
      </trkpt>
      <trkpt lat="43.96808" lon="6.67124">
        <ele>733.104</ele>
        <time>2019-04-20T10:43:34Z</time>
      </trkpt>
      <trkpt lat="43.96798" lon="6.67124">
        <ele>731.687</ele>
        <time>2019-04-20T10:43:42Z</time>
      </trkpt>
      <trkpt lat="43.96788" lon="6.67124">
        <ele>731.232</ele>
        <time>2019-04-20T10:43:50Z</time>
      </trkpt>
      <trkpt lat="43.96784" lon="6.67124">
        <ele>730.869</ele>
        <time>2019-04-20T10:43:53Z</time>
      </trkpt>
      <trkpt lat="43.96774" lon="6.67122">
        <ele>729.357</ele>
        <time>2019-04-20T10:44:01Z</time>
      </trkpt>
      <trkpt lat="43.96768" lon="6.67122">
        <ele>728.592</ele>
        <time>2019-04-20T10:44:10Z</time>
      </trkpt>
      <trkpt lat="43.96764" lon="6.67124">
        <ele>727.899</ele>
        <time>2019-04-20T10:44:32Z</time>
      </trkpt>
      <trkpt lat="43.96757" lon="6.67126">
        <ele>727.191</ele>
        <time>2019-04-20T10:44:39Z</time>
      </trkpt>
      <trkpt lat="43.96746" lon="6.67121">
        <ele>724.362</ele>
        <time>2019-04-20T10:44:49Z</time>
      </trkpt>
      <trkpt lat="43.96741" lon="6.67114">
        <ele>724.349</ele>
        <time>2019-04-20T10:44:58Z</time>
      </trkpt>
      <trkpt lat="43.9674" lon="6.67108">
        <ele>723.94</ele>
        <time>2019-04-20T10:45:28Z</time>
      </trkpt>
      <trkpt lat="43.96738" lon="6.67102">
        <ele>722.847</ele>
        <time>2019-04-20T10:45:32Z</time>
      </trkpt>
      <trkpt lat="43.96731" lon="6.67088">
        <ele>719.216</ele>
        <time>2019-04-20T10:45:43Z</time>
      </trkpt>
      <trkpt lat="43.96726" lon="6.67077">
        <ele>717.016</ele>
        <time>2019-04-20T10:45:52Z</time>
      </trkpt>
      <trkpt lat="43.96724" lon="6.67073">
        <ele>716.265</ele>
        <time>2019-04-20T10:45:55Z</time>
      </trkpt>
      <trkpt lat="43.96721" lon="6.67066">
        <ele>715.987</ele>
        <time>2019-04-20T10:46:00Z</time>
      </trkpt>
      <trkpt lat="43.96719" lon="6.67055">
        <ele>715.279</ele>
        <time>2019-04-20T10:46:06Z</time>
      </trkpt>
      <trkpt lat="43.96715" lon="6.67042">
        <ele>713.526</ele>
        <time>2019-04-20T10:46:15Z</time>
      </trkpt>
      <trkpt lat="43.96712" lon="6.67021">
        <ele>711.234</ele>
        <time>2019-04-20T10:46:28Z</time>
      </trkpt>
      <trkpt lat="43.9671" lon="6.67013">
        <ele>709.738</ele>
        <time>2019-04-20T10:46:33Z</time>
      </trkpt>
      <trkpt lat="43.96706" lon="6.66996">
        <ele>708.783</ele>
        <time>2019-04-20T10:46:45Z</time>
      </trkpt>
      <trkpt lat="43.96704" lon="6.66981">
        <ele>707.719</ele>
        <time>2019-04-20T10:46:54Z</time>
      </trkpt>
      <trkpt lat="43.96696" lon="6.66964">
        <ele>706.36</ele>
        <time>2019-04-20T10:47:07Z</time>
      </trkpt>
      <trkpt lat="43.96693" lon="6.66958">
        <ele>706.045</ele>
        <time>2019-04-20T10:47:12Z</time>
      </trkpt>
      <trkpt lat="43.96687" lon="6.66947">
        <ele>703.959</ele>
        <time>2019-04-20T10:47:22Z</time>
      </trkpt>
      <trkpt lat="43.96681" lon="6.66935">
        <ele>702.763</ele>
        <time>2019-04-20T10:47:31Z</time>
      </trkpt>
      <trkpt lat="43.96677" lon="6.6692">
        <ele>701.808</ele>
        <time>2019-04-20T10:47:41Z</time>
      </trkpt>
      <trkpt lat="43.96675" lon="6.66912">
        <ele>701.31</ele>
        <time>2019-04-20T10:47:50Z</time>
      </trkpt>
      <trkpt lat="43.96673" lon="6.66904">
        <ele>700.973</ele>
        <time>2019-04-20T10:48:01Z</time>
      </trkpt>
      <trkpt lat="43.96667" lon="6.66891">
        <ele>700.168</ele>
        <time>2019-04-20T10:48:11Z</time>
      </trkpt>
      <trkpt lat="43.96663" lon="6.66874">
        <ele>699.229</ele>
        <time>2019-04-20T10:48:23Z</time>
      </trkpt>
      <trkpt lat="43.9666" lon="6.66871">
        <ele>698.842</ele>
        <time>2019-04-20T10:48:26Z</time>
      </trkpt>
      <trkpt lat="43.9666" lon="6.66862">
        <ele>698.576</ele>
        <time>2019-04-20T10:48:35Z</time>
      </trkpt>
      <trkpt lat="43.96655" lon="6.66861">
        <ele>698.584</ele>
        <time>2019-04-20T10:48:48Z</time>
      </trkpt>
      <trkpt lat="43.96639" lon="6.66859">
        <ele>698.365</ele>
        <time>2019-04-20T10:48:58Z</time>
      </trkpt>
      <trkpt lat="43.96635" lon="6.66849">
        <ele>698.23</ele>
        <time>2019-04-20T10:49:06Z</time>
      </trkpt>
      <trkpt lat="43.96633" lon="6.66846">
        <ele>698.064</ele>
        <time>2019-04-20T10:49:08Z</time>
      </trkpt>
      <trkpt lat="43.9663" lon="6.66837">
        <ele>698.409</ele>
        <time>2019-04-20T10:49:14Z</time>
      </trkpt>
      <trkpt lat="43.96625" lon="6.66828">
        <ele>698.615</ele>
        <time>2019-04-20T10:49:23Z</time>
      </trkpt>
      <trkpt lat="43.96624" lon="6.66818">
        <ele>698.107</ele>
        <time>2019-04-20T10:49:33Z</time>
      </trkpt>
      <trkpt lat="43.96624" lon="6.66814">
        <ele>698.213</ele>
        <time>2019-04-20T10:49:35Z</time>
      </trkpt>
      <trkpt lat="43.96623" lon="6.6681">
        <ele>698.109</ele>
        <time>2019-04-20T10:49:39Z</time>
      </trkpt>
    </trkseg>
  </trk>
</gpx>